Data for 07/24/2011

Time Sea-Level Adjusted Pressure Absolute Pressure Temperature Relative Humidity Dew Point Precipitation   
(mb) (inHg) (mb) (inHg) (C) (F) (%) (C) (F) (mm) (in)
00:01 1024 30.24 853 25.19 10.6 51.1 75 6.3 43.4 -84 -3.307
00:02 1024 30.24 853 25.19 10.6 51 75 6.4 43.5 -84 -3.307
00:03 1024 30.24 853 25.19 10.5 51 75 6.4 43.5 -84.1 -3.311
00:04 1024 30.24 853 25.19 10.4 50.8 75 6.3 43.4 -84.1 -3.311
00:05 1024 30.24 853 25.19 10.5 50.9 75 6.3 43.3 -84.1 -3.311
00:06 1024 30.24 853 25.19 10.5 50.9 75 6.3 43.3 -84.1 -3.311
00:07 1024 30.24 853 25.19 10.5 50.8 75 6.3 43.4 -84.1 -3.311
00:08 1024 30.24 853 25.19 10.4 50.8 76 6.3 43.4 -84.2 -3.315
00:09 1024 30.24 854 25.22 10.4 50.7 76 6.3 43.4 -84.2 -3.315
00:10 1024 30.24 854 25.22 10.4 50.6 76 6.4 43.5 -84.2 -3.315
00:11 1024 30.24 854 25.22 10.3 50.6 76 6.4 43.5 -84.2 -3.315
00:12 1024 30.24 854 25.22 10.3 50.6 76 6.4 43.4 -84.2 -3.315
00:13 1024 30.24 854 25.22 10.3 50.5 76 6.3 43.3 -84.2 -3.315
00:14 1024 30.24 854 25.22 10.2 50.4 76 6.2 43.2 -84.2 -3.315
00:15 1024 30.24 854 25.22 10.2 50.4 76 6.3 43.3 -84.3 -3.319
00:16 1024 30.24 854 25.22 10.2 50.4 76 6.2 43.1 -84.3 -3.319
00:17 1024 30.24 854 25.22 10.2 50.4 76 6.2 43.1 -84.3 -3.319
00:18 1024 30.24 854 25.22 10.2 50.3 76 6.1 43.1 -84.3 -3.319
00:19 1024 30.24 854 25.22 10.1 50.2 76 6.2 43.1 -84.3 -3.319
00:20 1024 30.24 854 25.22 10 50 76 6.1 43 -84.3 -3.319
00:21 1024 30.24 854 25.22 10 50 76 6 42.8 -84.4 -3.323
00:22 1024 30.24 854 25.22 10 50 76 6 42.8 -84.4 -3.323
00:23 1024 30.24 854 25.22 10 50 76 6.1 42.9 -84.4 -3.323
00:24 1024 30.24 854 25.22 9.9 49.9 77 6.1 43 -84.4 -3.323
00:25 1024 30.24 854 25.22 9.8 49.7 78 6.1 43.1 -84.4 -3.323
00:26 1024 30.24 854 25.22 9.7 49.4 78 6.1 42.9 -84.4 -3.323
00:27 1024 30.24 854 25.22 9.5 49.2 79 6 42.8 -84.4 -3.323
00:28 1024 30.24 854 25.22 9.5 49.1 78 5.9 42.6 -84.4 -3.323
00:29 1024 30.24 854 25.22 9.5 49.1 78 5.9 42.7 -84.4 -3.323
00:30 1024 30.24 854 25.22 9.4 49 78 5.9 42.6 -84.4 -3.323
00:31 1024 30.24 854 25.22 9.4 48.9 79 5.9 42.6 -84.5 -3.327
00:32 1024 30.24 854 25.22 9.3 48.8 79 5.8 42.5 -84.5 -3.327
00:33 1025 30.27 854 25.22 9.3 48.8 79 5.8 42.5 -84.5 -3.327
00:34 1025 30.27 854 25.22 9.3 48.7 79 5.8 42.5 -84.5 -3.327
00:35 1025 30.27 854 25.22 9.4 48.9 79 5.9 42.6 -84.6 -3.331
00:36 1025 30.27 854 25.22 9.4 48.8 79 5.9 42.6 -84.6 -3.331
00:37 1025 30.27 854 25.22 9.3 48.7 79 5.9 42.6 -84.6 -3.331
00:38 1025 30.27 854 25.22 9.2 48.5 79 5.8 42.5 -84.6 -3.331
00:39 1025 30.27 854 25.22 9.2 48.6 79 5.7 42.3 -84.6 -3.331
00:40 1025 30.27 854 25.22 9.3 48.7 79 5.8 42.4 -84.6 -3.331
00:41 1025 30.27 854 25.22 9.2 48.6 79 5.8 42.4 -84.7 -3.335
00:42 1025 30.27 854 25.22 9.2 48.5 79 5.7 42.3 -84.7 -3.335
00:43 1025 30.27 854 25.22 9.2 48.5 79 5.7 42.3 -84.7 -3.335
00:44 1025 30.27 854 25.22 9.2 48.6 79 5.7 42.3 -84.7 -3.335
00:45 1025 30.27 854 25.22 9.2 48.5 79 5.7 42.3 -84.7 -3.335
00:46 1025 30.27 854 25.22 9.1 48.4 79 5.8 42.4 -84.8 -3.339
00:47 1025 30.27 854 25.22 9.1 48.3 80 5.8 42.4 -84.8 -3.339
00:48 1025 30.27 854 25.22 9 48.2 80 5.8 42.4 -84.8 -3.339
00:49 1025 30.27 854 25.22 8.9 48 81 5.8 42.4 -84.8 -3.339
00:50 1025 30.27 854 25.22 8.9 47.9 81 5.7 42.3 -84.9 -3.343
00:51 1025 30.27 854 25.22 8.8 47.9 80 5.7 42.2 -84.9 -3.343
00:52 1025 30.27 854 25.22 8.9 47.9 80 5.7 42.2 -84.9 -3.343
00:53 1025 30.27 854 25.22 8.9 48 80 5.7 42.2 -84.9 -3.343
00:54 1025 30.27 854 25.22 8.9 47.9 80 5.7 42.2 -84.9 -3.343
00:55 1025 30.27 854 25.22 8.8 47.9 80 5.5 41.9 -85 -3.346
00:56 1025 30.27 854 25.22 8.9 47.9 79 5.5 41.9 -85 -3.346
00:57 1025 30.27 854 25.22 8.9 48.1 79 5.5 42 -85 -3.346
00:58 1025 30.27 854 25.22 9 48.1 79 5.6 42 -85 -3.346
00:59 1025 30.27 854 25.22 9.1 48.4 78 5.6 42 -85 -3.346
01:00 1025 30.27 854 25.22 9.3 48.7 78 5.6 42.1 -85 -3.346
01:01 1025 30.27 854 25.22 9.4 48.9 77 5.6 42.1 -85.1 -3.35
01:02 1025 30.27 854 25.22 9.5 49.1 77 5.7 42.2 -85.1 -3.35
01:03 1025 30.27 854 25.22 9.5 49.1 77 5.7 42.2 -85.1 -3.35
01:04 1025 30.27 854 25.22 9.5 49.1 76 5.6 42.1 -85.1 -3.35
01:05 1025 30.27 854 25.22 9.6 49.2 76 5.6 42.1 -85.1 -3.35
01:06 1025 30.27 854 25.22 9.5 49.2 76 5.6 42.1 -85.1 -3.35
01:07 1025 30.27 854 25.22 9.5 49.1 77 5.7 42.2 -85.1 -3.35
01:08 1025 30.27 854 25.22 9.5 49.2 77 5.7 42.2 -85.1 -3.35
01:09 1025 30.27 854 25.22 9.6 49.3 76 5.6 42 -85.2 -3.354
01:10 1025 30.27 854 25.22 9.8 49.6 76 5.7 42.2 -85.2 -3.354
01:11 1025 30.27 854 25.22 9.8 49.7 75 5.7 42.3 -85.2 -3.354
01:12 1025 30.27 854 25.22 9.8 49.7 76 5.8 42.4 -85.2 -3.354
01:13 1025 30.27 854 25.22 9.8 49.7 76 5.9 42.6 -85.2 -3.354
01:14 1025 30.27 854 25.22 9.7 49.5 77 5.8 42.5 -85.2 -3.354
01:15 1025 30.27 854 25.22 9.7 49.4 77 5.8 42.4 -85.3 -3.358
01:16 1025 30.27 854 25.22 9.6 49.3 77 5.7 42.3 -85.5 -3.366
01:17 1025 30.27 854 25.22 9.6 49.2 77 5.7 42.3 -85.7 -3.374
01:18 1025 30.27 854 25.22 9.5 49.2 77 5.7 42.2 -85.8 -3.378
01:19 1025 30.27 854 25.22 9.5 49.1 77 5.7 42.2 -85.8 -3.378
01:20 1025 30.27 854 25.22 9.4 49 77 5.6 42.1 -85.8 -3.378
01:21 1025 30.27 854 25.22 9.5 49 77 5.6 42.1 -85.8 -3.378
01:22 1025 30.27 854 25.22 9.4 49 77 5.6 42.1 -85.8 -3.378
01:23 1025 30.27 854 25.22 9.3 48.8 78 5.6 42.1 -85.8 -3.378
01:24 1025 30.27 854 25.22 9.3 48.7 78 5.6 42 -85.8 -3.378
01:25 1025 30.27 854 25.22 9.3 48.7 77 5.5 42 -85.8 -3.378
01:26 1025 30.27 854 25.22 9.3 48.7 77 5.5 42 -85.8 -3.378
01:27 1025 30.27 854 25.22 9.3 48.8 77 5.5 41.9 -85.8 -3.378
01:28 1025 30.27 854 25.22 9.4 48.9 76 5.4 41.8 -85.8 -3.378
01:29 1025 30.27 854 25.22 9.4 48.8 76 5.4 41.8 -85.8 -3.378
01:30 1025 30.27 854 25.22 9.3 48.7 77 5.4 41.8 -85.8 -3.378
01:31 1025 30.27 854 25.22 9.2 48.5 77 5.4 41.7 -85.8 -3.378
01:32 1025 30.27 854 25.22 9.1 48.4 79 5.7 42.3 -85.8 -3.378
01:33 1025 30.27 854 25.22 9 48.2 80 5.8 42.4 -85.8 -3.378
01:34 1025 30.27 854 25.22 8.9 48.1 80 5.8 42.4 -85.8 -3.378
01:35 1025 30.27 854 25.22 8.9 48 80 5.7 42.3 -85.8 -3.378
01:36 1025 30.27 854 25.22 8.9 47.9 81 5.8 42.4 -85.8 -3.378
01:37 1025 30.27 854 25.22 8.7 47.7 81 5.7 42.3 -85.8 -3.378
01:38 1025 30.27 854 25.22 8.6 47.5 82 5.7 42.3 -85.8 -3.378
01:39 1025 30.27 854 25.22 8.6 47.4 82 5.7 42.3 -85.9 -3.382
01:40 1025 30.27 854 25.22 8.7 47.6 82 5.7 42.2 -85.9 -3.382
01:41 1025 30.27 854 25.22 8.8 47.8 81 5.6 42.2 -85.9 -3.382
01:42 1025 30.27 854 25.22 8.9 48 80 5.7 42.2 -85.9 -3.382
01:43 1025 30.27 854 25.22 8.9 48 80 5.7 42.3 -85.9 -3.382
01:44 1025 30.27 854 25.22 8.9 47.9 81 5.7 42.3 -85.9 -3.382
01:45 1025 30.27 854 25.22 8.8 47.8 81 5.7 42.3 -85.9 -3.382
01:46 1025 30.27 854 25.22 8.8 47.8 81 5.8 42.4 -85.9 -3.382
01:47 1025 30.27 854 25.22 8.8 47.8 81 5.7 42.3 -85.9 -3.382
01:48 1025 30.27 854 25.22 8.7 47.7 81 5.7 42.3 -85.9 -3.382
01:49 1025 30.27 854 25.22 8.6 47.6 82 5.7 42.2 -85.9 -3.382
01:50 1025 30.27 854 25.22 8.7 47.6 81 5.6 42.1 -85.9 -3.382
01:51 1025 30.27 854 25.22 8.7 47.6 81 5.6 42.1 -86 -3.386
01:52 1025 30.27 854 25.22 8.6 47.5 81 5.6 42 -86 -3.386
01:53 1025 30.27 854 25.22 8.5 47.4 81 5.5 41.8 -86 -3.386
01:54 1025 30.27 854 25.22 8.5 47.2 82 5.6 42 -86 -3.386
01:55 1025 30.27 854 25.22 8.4 47.2 82 5.5 41.9 -86 -3.386
01:56 1025 30.27 854 25.22 8.3 47 82 5.5 41.9 -86 -3.386
01:57 1025 30.27 854 25.22 8.3 46.9 83 5.5 42 -86 -3.386
01:58 1025 30.27 854 25.22 8.3 47 82 5.5 41.9 -86 -3.386
01:59 1025 30.27 854 25.22 8.4 47 82 5.5 41.9 -86 -3.386
02:00 1025 30.27 854 25.22 8.3 46.9 82 5.5 41.9 -86.1 -3.39
02:01 1025 30.27 854 25.22 8.3 47 82 5.5 41.8 -86.1 -3.39
02:02 1025 30.27 854 25.22 8.3 46.9 82 5.4 41.8 -86.1 -3.39
02:03 1025 30.27 854 25.22 8.3 47 82 5.4 41.8 -86.1 -3.39
02:04 1025 30.27 854 25.22 8.3 46.9 82 5.4 41.8 -86.1 -3.39
02:05 1025 30.27 854 25.22 8.3 46.9 82 5.4 41.8 -86.1 -3.39
02:06 1025 30.27 854 25.22 8.3 46.9 82 5.4 41.7 -86.1 -3.39
02:07 1025 30.27 854 25.22 8.3 46.9 82 5.4 41.7 -86.1 -3.39
02:08 1025 30.27 854 25.22 8.3 47 81 5.3 41.6 -86.1 -3.39
02:09 1025 30.27 854 25.22 8.4 47.1 81 5.3 41.6 -86.1 -3.39
02:10 1025 30.27 854 25.22 8.4 47.1 81 5.4 41.6 -86.1 -3.39
02:11 1025 30.27 854 25.22 8.4 47.1 81 5.3 41.6 -86.1 -3.39
02:12 1025 30.27 854 25.22 8.5 47.2 81 5.4 41.7 -86.1 -3.39
02:13 1025 30.27 854 25.22 8.5 47.3 80 5.4 41.6 -86.1 -3.39
02:14 1025 30.27 854 25.22 8.6 47.4 80 5.3 41.6 -86.1 -3.39
02:15 1025 30.27 854 25.22 8.6 47.5 79 5.3 41.5 -86.1 -3.39
02:16 1025 30.27 854 25.22 8.7 47.7 79 5.3 41.5 -86.1 -3.39
02:17 1025 30.27 854 25.22 8.8 47.8 78 5.1 41.2 -86.2 -3.394
02:18 1025 30.27 854 25.22 8.9 48.1 77 5.1 41.3 -86.2 -3.394
02:19 1025 30.27 854 25.22 9 48.2 76 5 41.1 -86.2 -3.394
02:20 1025 30.27 854 25.22 9.2 48.5 76 5.1 41.2 -86.2 -3.394
02:21 1025 30.27 854 25.22 9.2 48.6 75 5.1 41.2 -86.2 -3.394
02:22 1025 30.27 854 25.22 9.2 48.6 75 5.1 41.2 -86.2 -3.394
02:23 1025 30.27 854 25.22 9.2 48.6 75 5.1 41.1 -86.3 -3.398
02:24 1025 30.27 854 25.22 9.2 48.5 75 5.1 41.2 -86.3 -3.398
02:25 1025 30.27 854 25.22 9.2 48.5 75 5.1 41.1 -86.3 -3.398
02:26 1025 30.27 854 25.22 9.2 48.5 75 5 41.1 -86.3 -3.398
02:27 1025 30.27 854 25.22 9.1 48.4 75 5 41 -86.3 -3.398
02:28 1025 30.27 854 25.22 9.1 48.4 75 5 41 -86.4 -3.402
02:29 1025 30.27 854 25.22 9.2 48.5 75 4.9 40.9 -86.4 -3.402
02:30 1025 30.27 854 25.22 9.2 48.5 75 5 41 -86.4 -3.402
02:31 1025 30.27 854 25.22 9.1 48.4 75 5 41 -86.4 -3.402
02:32 1025 30.27 854 25.22 9 48.3 76 5 41 -86.3 -3.398
02:33 1025 30.27 854 25.22 9 48.2 76 4.9 40.9 -86.3 -3.398
02:34 1025 30.27 854 25.22 8.9 48.1 76 4.9 40.8 -86.3 -3.398
02:35 1025 30.27 854 25.22 8.9 48.1 76 4.9 40.9 -86.2 -3.394
02:36 1025 30.27 854 25.22 8.9 48.1 76 4.9 40.9 -86.2 -3.394
02:37 1025 30.27 854 25.22 8.9 47.9 76 5 40.9 -86.2 -3.394
02:38 1025 30.27 854 25.22 8.8 47.8 77 4.9 40.9 -86.2 -3.394
02:39 1025 30.27 854 25.22 8.7 47.7 77 4.9 40.8 -86.2 -3.394
02:40 1025 30.27 854 25.22 8.7 47.6 77 4.8 40.7 -86.2 -3.394
02:41 1025 30.27 854 25.22 8.7 47.6 77 4.8 40.7 -86.2 -3.394
02:42 1025 30.27 854 25.22 8.6 47.6 77 4.8 40.6 -86.2 -3.394
02:43 1025 30.27 854 25.22 8.7 47.6 77 4.8 40.7 -86.2 -3.394
02:44 1025 30.27 854 25.22 8.6 47.5 77 4.8 40.6 -86.2 -3.394
02:45 1025 30.27 854 25.22 8.7 47.6 76 4.8 40.6 -86.2 -3.394
02:46 1025 30.27 854 25.22 8.7 47.7 76 4.8 40.6 -86.2 -3.394
02:47 1025 30.27 854 25.22 8.7 47.7 76 4.8 40.6 -86.2 -3.394
02:48 1025 30.27 854 25.22 8.8 47.8 76 4.8 40.6 -86.2 -3.394
02:49 1025 30.27 854 25.22 8.8 47.8 76 4.7 40.5 -86.3 -3.398
02:50 1025 30.27 854 25.22 8.8 47.8 76 4.7 40.5 -86.3 -3.398
02:51 1025 30.27 854 25.22 8.8 47.8 76 4.7 40.5 -86.3 -3.398
02:52 1025 30.27 854 25.22 8.7 47.7 76 4.7 40.5 -86.3 -3.398
02:53 1025 30.27 854 25.22 8.7 47.6 76 4.7 40.5 -86.3 -3.398
02:54 1025 30.27 854 25.22 8.7 47.6 76 4.8 40.6 -86.4 -3.402
02:55 1025 30.27 854 25.22 8.6 47.4 77 4.7 40.5 -86.4 -3.402
02:56 1025 30.27 854 25.22 8.6 47.4 76 4.7 40.4 -86.4 -3.402
02:57 1025 30.27 854 25.22 8.6 47.5 76 4.7 40.4 -86.4 -3.402
02:58 1025 30.27 854 25.22 8.6 47.5 76 4.6 40.4 -86.4 -3.402
02:59 1025 30.27 854 25.22 8.6 47.4 76 4.6 40.3 -86.4 -3.402
03:00 1025 30.27 854 25.22 8.6 47.4 76 4.7 40.4 -86.4 -3.402
03:01 1025 30.27 854 25.22 8.5 47.3 77 4.7 40.4 -86.4 -3.402
03:02 1025 30.27 854 25.22 8.4 47.1 77 4.7 40.4 -86.4 -3.402
03:03 1025 30.27 854 25.22 8.2 46.8 78 4.6 40.3 -86.5 -3.406
03:04 1025 30.27 854 25.22 8 46.5 79 4.6 40.2 -86.5 -3.406
03:05 1025 30.27 854 25.22 7.9 46.2 79 4.5 40.2 -86.5 -3.406
03:06 1025 30.27 854 25.22 7.9 46.2 79 4.4 40 -86.5 -3.406
03:07 1025 30.27 854 25.22 7.9 46.3 79 4.4 40 -86.5 -3.406
03:08 1025 30.27 854 25.22 8 46.4 78 4.4 40 -86.5 -3.406
03:09 1025 30.27 854 25.22 8 46.3 78 4.4 39.9 -86.5 -3.406
03:10 1025 30.27 854 25.22 8 46.3 78 4.4 39.9 -86.5 -3.406
03:11 1025 30.27 854 25.22 7.9 46.1 79 4.4 39.9 -86.5 -3.406
03:12 1025 30.27 854 25.22 7.9 46.2 79 4.4 39.9 -86.5 -3.406
03:13 1025 30.27 854 25.22 8 46.3 78 4.4 39.9 -86.5 -3.406
03:14 1025 30.27 854 25.22 8 46.4 78 4.4 40 -86.5 -3.406
03:15 1025 30.27 854 25.22 8 46.4 78 4.5 40 -86.5 -3.406
03:16 1025 30.27 854 25.22 7.9 46.3 79 4.5 40.2 -86.6 -3.409
03:17 1025 30.27 854 25.22 8 46.3 79 4.5 40.1 -86.6 -3.409
03:18 1025 30.27 854 25.22 8.1 46.6 77 4.4 40 -86.6 -3.409
03:19 1025 30.27 854 25.22 8.3 46.9 77 4.5 40.1 -86.6 -3.409
03:20 1025 30.27 854 25.22 8.3 47 77 4.6 40.2 -86.6 -3.409
03:21 1025 30.27 854 25.22 8.3 47 77 4.5 40.1 -86.7 -3.413
03:22 1025 30.27 854 25.22 8.3 47 77 4.5 40 -86.7 -3.413
03:23 1025 30.27 854 25.22 8.4 47.1 76 4.4 39.9 -86.7 -3.413
03:24 1025 30.27 854 25.22 8.5 47.4 75 4.4 39.8 -86.7 -3.413
03:25 1025 30.27 854 25.22 8.7 47.6 74 4.4 39.8 -86.7 -3.413
03:26 1025 30.27 854 25.22 8.7 47.7 74 4.3 39.7 -86.7 -3.413
03:27 1025 30.27 854 25.22 8.8 47.9 73 4.3 39.7 -86.7 -3.413
03:28 1025 30.27 854 25.22 9 48.1 72 4.2 39.6 -86.7 -3.413
03:29 1025 30.27 854 25.22 9 48.3 72 4.3 39.7 -86.7 -3.413
03:30 1025 30.27 854 25.22 9.1 48.3 72 4.2 39.6 -86.7 -3.413
03:31 1025 30.27 854 25.22 9.1 48.4 71 4.2 39.5 -86.7 -3.413
03:32 1025 30.27 854 25.22 9.3 48.7 71 4.2 39.6 -86.7 -3.413
03:33 1025 30.27 854 25.22 9.3 48.7 70 4.2 39.5 -86.7 -3.413
03:34 1025 30.27 854 25.22 9.2 48.6 71 4.2 39.6 -86.7 -3.413
03:35 1025 30.27 855 25.25 9.2 48.5 71 4.1 39.5 -86.7 -3.413
03:36 1025 30.27 854 25.22 9.2 48.6 71 4.1 39.5 -86.7 -3.413
03:37 1025 30.27 855 25.25 9.2 48.6 70 4.1 39.4 -86.7 -3.413
03:38 1025 30.27 855 25.25 9.3 48.7 71 4.2 39.6 -86.7 -3.413
03:39 1025 30.27 854 25.22 9.3 48.7 69 4 39.2 -86.7 -3.413
03:40 1025 30.27 854 25.22 9.5 49 68 4 39.2 -86.7 -3.413
03:41 1025 30.27 854 25.22 9.6 49.2 68 4.1 39.3 -86.7 -3.413
03:42 1025 30.27 854 25.22 9.8 49.6 68 4.2 39.5 -86.7 -3.413
03:43 1025 30.27 854 25.22 9.9 49.7 68 4.3 39.7 -86.7 -3.413
03:44 1025 30.27 854 25.22 9.8 49.6 69 4.3 39.8 -86.7 -3.413
03:45 1025 30.27 854 25.22 9.7 49.5 68 4.2 39.6 -86.7 -3.413
03:46 1025 30.27 855 25.25 9.8 49.6 67 4 39.2 -86.7 -3.413
03:47 1025 30.27 855 25.25 9.9 49.8 67 4.1 39.4 -86.7 -3.413
03:48 1025 30.27 855 25.25 9.9 49.9 67 4.1 39.4 -86.7 -3.413
03:49 1025 30.27 855 25.25 9.9 49.8 68 4.3 39.7 -86.7 -3.413
03:50 1025 30.27 855 25.25 9.7 49.5 69 4.4 40 -86.7 -3.413
03:51 1025 30.27 855 25.25 9.5 49.1 70 4.3 39.7 -86.7 -3.413
03:52 1025 30.27 855 25.25 9.4 49 70 4.3 39.8 -86.7 -3.413
03:53 1025 30.27 855 25.25 9.3 48.7 71 4.4 39.9 -86.7 -3.413
03:54 1025 30.27 855 25.25 9.1 48.5 72 4.5 40 -86.7 -3.413
03:55 1025 30.27 855 25.25 9 48.1 73 4.4 40 -86.7 -3.413
03:56 1025 30.27 855 25.25 8.8 47.8 74 4.4 40 -86.7 -3.413
03:57 1025 30.27 855 25.25 8.6 47.5 75 4.4 40 -86.7 -3.413
03:58 1025 30.27 855 25.25 8.4 47.2 76 4.4 39.9 -86.7 -3.413
03:59 1025 30.27 855 25.25 8.4 47.1 76 4.4 39.9 -86.7 -3.413
04:00 1025 30.27 855 25.25 8.3 47 76 4.3 39.7 -86.7 -3.413
04:01 1025 30.27 855 25.25 8.3 47 75 4.2 39.5 -86.7 -3.413
04:02 1025 30.27 855 25.25 8.4 47.1 75 4.2 39.5 -86.7 -3.413
04:03 1025 30.27 855 25.25 8.4 47.1 74 4.1 39.3 -86.7 -3.413
04:04 1025 30.27 855 25.25 8.5 47.3 74 4.1 39.4 -86.7 -3.413
04:05 1025 30.27 855 25.25 8.4 47.2 74 4.1 39.4 -86.7 -3.413
04:06 1025 30.27 855 25.25 8.4 47.1 74 4.1 39.4 -86.7 -3.413
04:07 1025 30.27 855 25.25 8.4 47.1 74 4.1 39.3 -86.7 -3.413
04:08 1025 30.27 855 25.25 8.4 47.2 74 4.1 39.3 -86.7 -3.413
04:09 1025 30.27 855 25.25 8.4 47.1 74 4.1 39.3 -86.7 -3.413
04:10 1025 30.27 855 25.25 8.4 47.2 73 3.9 39.1 -86.7 -3.413
04:11 1026 30.3 855 25.25 8.6 47.5 72 3.8 38.8 -86.7 -3.413
04:12 1026 30.3 855 25.25 8.8 47.9 71 3.9 39 -86.8 -3.417
04:13 1026 30.3 855 25.25 8.9 48.1 71 4.1 39.3 -86.8 -3.417
04:14 1026 30.3 855 25.25 8.9 47.9 72 4.1 39.4 -86.9 -3.421
04:15 1025 30.27 855 25.25 8.7 47.7 73 4.2 39.6 -86.9 -3.421
04:16 1026 30.3 855 25.25 8.5 47.3 74 4.2 39.5 -86.9 -3.421
04:17 1026 30.3 855 25.25 8.2 46.8 75 4.1 39.3 -86.9 -3.421
04:18 1025 30.27 855 25.25 8.1 46.6 75 4 39.2 -86.9 -3.421
04:19 1025 30.27 855 25.25 8.1 46.5 75 3.9 39 -86.9 -3.421
04:20 1025 30.27 855 25.25 8.2 46.7 75 3.9 39.1 -86.9 -3.421
04:21 1025 30.27 855 25.25 8.3 46.9 74 4 39.2 -86.9 -3.421
04:22 1025 30.27 855 25.25 8.4 47.1 73 3.8 38.8 -86.9 -3.421
04:23 1025 30.27 855 25.25 8.7 47.7 69 3.5 38.2 -86.9 -3.421
04:24 1025 30.27 855 25.25 9.2 48.6 68 3.7 38.7 -86.9 -3.421
04:25 1025 30.27 855 25.25 9.4 49 69 4 39.2 -87 -3.425
04:26 1025 30.27 855 25.25 9.4 49 69 4.1 39.3 -87 -3.425
04:27 1025 30.27 855 25.25 9.4 48.9 70 4.2 39.6 -86.9 -3.421
04:28 1025 30.27 855 25.25 9.2 48.5 70 4.1 39.3 -86.9 -3.421
04:29 1025 30.27 855 25.25 9.1 48.4 70 3.9 39 -86.9 -3.421
04:30 1025 30.27 855 25.25 9.2 48.6 68 3.7 38.6 -86.9 -3.421
04:31 1025 30.27 855 25.25 9.5 49 68 3.9 39 -86.9 -3.421
04:32 1025 30.27 855 25.25 9.5 49 70 4.2 39.6 -86.9 -3.421
04:33 1025 30.27 855 25.25 9.2 48.6 70 4.1 39.4 -86.9 -3.421
04:34 1026 30.3 855 25.25 9 48.2 71 4 39.2 -86.9 -3.421
04:35 1025 30.27 855 25.25 8.9 48 70 3.8 38.8 -86.9 -3.421
04:36 1025 30.27 855 25.25 9 48.1 70 3.8 38.8 -86.9 -3.421
04:37 1025 30.27 855 25.25 9.1 48.3 70 3.8 38.9 -86.9 -3.421
04:38 1026 30.3 855 25.25 9.1 48.4 69 3.7 38.7 -86.9 -3.421
04:39 1025 30.27 855 25.25 9.2 48.5 69 3.8 38.8 -86.9 -3.421
04:40 1026 30.3 855 25.25 9.2 48.6 68 3.7 38.7 -86.9 -3.421
04:41 1026 30.3 855 25.25 9.2 48.6 69 3.9 39 -86.9 -3.421
04:42 1025 30.27 855 25.25 9.2 48.6 69 3.8 38.9 -86.9 -3.421
04:43 1025 30.27 855 25.25 9.2 48.6 68 3.8 38.8 -86.9 -3.421
04:44 1025 30.27 855 25.25 9.3 48.7 68 3.7 38.6 -86.9 -3.421
04:45 1026 30.3 855 25.25 9.4 48.9 69 4.1 39.3 -86.9 -3.421
04:46 1026 30.3 855 25.25 9.2 48.5 72 4.4 40 -86.9 -3.421
04:47 1026 30.3 855 25.25 8.7 47.7 73 4.2 39.5 -86.9 -3.421
04:48 1026 30.3 855 25.25 8.7 47.7 72 4 39.2 -86.9 -3.421
04:49 1026 30.3 855 25.25 8.6 47.5 74 4.2 39.6 -86.9 -3.421
04:50 1026 30.3 855 25.25 8.2 46.7 76 4.2 39.6 -86.9 -3.421
04:51 1026 30.3 855 25.25 7.8 46 78 4.1 39.4 -86.9 -3.421
04:52 1026 30.3 855 25.25 7.5 45.5 79 4.1 39.3 -86.9 -3.421
04:53 1026 30.3 855 25.25 7.3 45.1 79 4 39.2 -86.9 -3.421
04:54 1026 30.3 855 25.25 7.1 44.8 80 3.9 39 -86.9 -3.421
04:55 1026 30.3 855 25.25 7 44.5 80 3.8 38.9 -86.9 -3.421
04:56 1026 30.3 855 25.25 6.9 44.4 80 3.7 38.7 -86.9 -3.421
04:57 1026 30.3 855 25.25 6.9 44.4 80 3.7 38.6 -86.9 -3.421
04:58 1026 30.3 855 25.25 7 44.6 79 3.7 38.7 -86.9 -3.421
04:59 1026 30.3 855 25.25 7 44.6 79 3.7 38.7 -86.9 -3.421
05:00 1026 30.3 855 25.25 7 44.6 79 3.6 38.5 -86.9 -3.421
05:01 1026 30.3 855 25.25 7.1 44.8 79 3.6 38.5 -86.9 -3.421
05:02 1026 30.3 855 25.25 7.1 44.8 78 3.6 38.5 -86.9 -3.421
05:03 1026 30.3 855 25.25 7.1 44.9 78 3.6 38.4 -86.9 -3.421
05:04 1026 30.3 855 25.25 7.2 44.9 78 3.6 38.4 -86.9 -3.421
05:05 1026 30.3 855 25.25 7.1 44.7 78 3.5 38.4 -86.9 -3.421
05:06 1026 30.3 855 25.25 7 44.6 79 3.6 38.4 -87 -3.425
05:07 1026 30.3 855 25.25 6.9 44.5 79 3.6 38.4 -87 -3.425
05:08 1026 30.3 855 25.25 6.7 44.1 81 3.7 38.7 -87 -3.425
05:09 1026 30.3 855 25.25 6.6 43.9 81 3.6 38.4 -87.1 -3.429
05:10 1026 30.3 855 25.25 6.8 44.2 80 3.6 38.5 -87.1 -3.429
05:11 1026 30.3 855 25.25 6.9 44.4 80 3.6 38.5 -87.2 -3.433
05:12 1026 30.3 855 25.25 6.9 44.4 79 3.5 38.3 -87.3 -3.437
05:13 1026 30.3 855 25.25 6.9 44.4 79 3.5 38.4 -87.3 -3.437
05:14 1026 30.3 855 25.25 6.9 44.3 79 3.5 38.3 -87.3 -3.437
05:15 1026 30.3 855 25.25 6.8 44.2 79 3.4 38.2 -87.3 -3.437
05:16 1026 30.3 855 25.25 6.9 44.4 78 3.3 38 -87.2 -3.433
05:17 1026 30.3 855 25.25 7 44.6 78 3.4 38.1 -87.2 -3.433
05:18 1026 30.3 855 25.25 7 44.5 78 3.5 38.2 -87.2 -3.433
05:19 1026 30.3 855 25.25 6.9 44.4 79 3.5 38.3 -87.2 -3.433
05:20 1026 30.3 855 25.25 6.9 44.3 79 3.5 38.4 -87.2 -3.433
05:21 1026 30.3 855 25.25 6.7 44.1 80 3.5 38.3 -87.2 -3.433
05:22 1026 30.3 855 25.25 6.6 43.9 80 3.5 38.3 -87.2 -3.433
05:23 1026 30.3 855 25.25 6.3 43.4 81 3.4 38.1 -87.2 -3.433
05:24 1026 30.3 855 25.25 6.2 43.1 82 3.4 38.1 -87.2 -3.433
05:25 1026 30.3 855 25.25 6.2 43.2 82 3.4 38.1 -87.2 -3.433
05:26 1026 30.3 855 25.25 6.3 43.4 81 3.4 38.1 -87.2 -3.433
05:27 1026 30.3 855 25.25 6.7 44.1 79 3.3 38 -87.2 -3.433
05:28 1026 30.3 855 25.25 7.1 44.7 77 3.4 38 -87.2 -3.433
05:29 1026 30.3 855 25.25 7.3 45.2 76 3.4 38.1 -87.2 -3.433
05:30 1026 30.3 855 25.25 7.5 45.5 75 3.4 38.1 -87.2 -3.433
05:31 1026 30.3 855 25.25 7.6 45.6 75 3.4 38.2 -87.3 -3.437
05:32 1026 30.3 855 25.25 7.5 45.5 75 3.5 38.2 -87.3 -3.437
05:33 1026 30.3 855 25.25 7.4 45.2 76 3.5 38.2 -87.3 -3.437
05:34 1026 30.3 855 25.25 7.2 45 78 3.6 38.5 -87.3 -3.437
05:35 1026 30.3 855 25.25 7.1 44.8 78 3.6 38.5 -87.3 -3.437
05:36 1026 30.3 855 25.25 7 44.6 79 3.6 38.4 -87.3 -3.437
05:37 1026 30.3 855 25.25 6.9 44.4 79 3.5 38.3 -87.3 -3.437
05:38 1026 30.3 855 25.25 6.8 44.3 79 3.5 38.2 -87.3 -3.437
05:39 1026 30.3 855 25.25 6.8 44.2 79 3.5 38.2 -87.3 -3.437
05:40 1026 30.3 855 25.25 6.7 44.1 80 3.5 38.2 -87.3 -3.437
05:41 1026 30.3 855 25.25 6.6 43.9 80 3.4 38.1 -87.3 -3.437
05:42 1026 30.3 855 25.25 6.6 43.9 80 3.3 38 -87.4 -3.441
05:43 1026 30.3 855 25.25 6.7 44.1 79 3.3 37.9 -87.4 -3.441
05:44 1026 30.3 855 25.25 6.7 44.1 79 3.3 37.9 -87.4 -3.441
05:45 1026 30.3 855 25.25 6.7 44.1 78 3.2 37.8 -87.4 -3.441
05:46 1026 30.3 855 25.25 6.7 44.1 78 3.2 37.8 -87.4 -3.441
05:47 1026 30.3 855 25.25 6.6 43.8 79 3.2 37.8 -87.4 -3.441
05:48 1026 30.3 855 25.25 6.6 43.9 78 3.1 37.6 -87.4 -3.441
05:49 1026 30.3 855 25.25 6.8 44.3 77 3.1 37.6 -87.4 -3.441
05:50 1026 30.3 855 25.25 7.1 44.7 76 3.2 37.7 -87.4 -3.441
05:51 1026 30.3 855 25.25 7.1 44.8 76 3.2 37.8 -87.4 -3.441
05:52 1026 30.3 855 25.25 7.1 44.7 76 3.1 37.6 -87.5 -3.445
05:53 1026 30.3 855 25.25 7.3 45.1 75 3.1 37.5 -87.6 -3.449
05:54 1026 30.3 855 25.25 7.6 45.6 75 3.4 38.1 -87.6 -3.449
05:55 1026 30.3 855 25.25 7.8 46 74 3.4 38.1 -87.7 -3.453
05:56 1026 30.3 855 25.25 7.8 46 74 3.5 38.2 -87.7 -3.453
05:57 1026 30.3 855 25.25 7.6 45.6 74 3.2 37.7 -87.7 -3.453
05:58 1026 30.3 855 25.25 7.5 45.5 73 3.1 37.5 -87.8 -3.457
05:59 1026 30.3 855 25.25 7.6 45.7 73 3.2 37.8 -87.8 -3.457
06:00 1026 30.3 855 25.25 7.8 46.1 73 3.2 37.8 -87.8 -3.457
06:01 1026 30.3 855 25.25 8.1 46.6 71 3.2 37.7 -87.8 -3.457
06:02 1026 30.3 855 25.25 8.3 47 71 3.4 38.1 -87.8 -3.457
06:03 1026 30.3 855 25.25 8.4 47 71 3.3 38 -87.8 -3.457
06:04 1026 30.3 855 25.25 8.4 47.1 71 3.4 38.1 -87.8 -3.457
06:05 1026 30.3 855 25.25 8.4 47.1 71 3.5 38.3 -87.8 -3.457
06:06 1026 30.3 855 25.25 8.2 46.8 72 3.5 38.2 -87.7 -3.453
06:07 1026 30.3 855 25.25 8.1 46.6 72 3.4 38.1 -87.7 -3.453
06:08 1026 30.3 855 25.25 8.3 46.9 70 3.3 37.9 -87.7 -3.453
06:09 1026 30.3 855 25.25 8.6 47.5 70 3.4 38.1 -87.7 -3.453
06:10 1026 30.3 855 25.25 8.8 47.9 69 3.5 38.2 -87.7 -3.453
06:11 1026 30.3 855 25.25 8.9 48.1 68 3.4 38.2 -87.7 -3.453
06:12 1026 30.3 855 25.25 9 48.3 68 3.5 38.3 -87.6 -3.449
06:13 1026 30.3 855 25.25 9.1 48.3 68 3.4 38.2 -87.6 -3.449
06:14 1026 30.3 855 25.25 9.1 48.3 68 3.6 38.4 -87.6 -3.449
06:15 1026 30.3 855 25.25 9 48.1 69 3.6 38.4 -87.6 -3.449
06:16 1026 30.3 855 25.25 8.8 47.9 69 3.5 38.2 -87.6 -3.449
06:17 1026 30.3 855 25.25 8.7 47.7 70 3.5 38.3 -87.6 -3.449
06:18 1026 30.3 855 25.25 8.6 47.5 70 3.6 38.4 -87.6 -3.449
06:19 1026 30.3 855 25.25 8.6 47.5 70 3.4 38.2 -87.6 -3.449
06:20 1026 30.3 855 25.25 8.7 47.7 70 3.6 38.4 -87.6 -3.449
06:21 1026 30.3 855 25.25 8.8 47.9 69 3.5 38.3 -87.6 -3.449
06:22 1026 30.3 855 25.25 8.9 48 69 3.5 38.3 -87.6 -3.449
06:23 1026 30.3 855 25.25 9 48.1 68 3.4 38.1 -87.6 -3.449
06:24 1026 30.3 855 25.25 9.1 48.3 68 3.6 38.4 -87.6 -3.449
06:25 1026 30.3 855 25.25 9.2 48.5 67 3.5 38.3 -87.6 -3.449
06:26 1026 30.3 855 25.25 9.3 48.7 67 3.4 38.2 -87.6 -3.449
06:27 1026 30.3 855 25.25 9.4 48.9 67 3.5 38.4 -87.6 -3.449
06:28 1026 30.3 855 25.25 9.4 49 68 3.8 38.9 -87.6 -3.449
06:29 1026 30.3 855 25.25 9.4 48.9 67 3.7 38.7 -87.6 -3.449
06:30 1026 30.3 855 25.25 9.3 48.8 68 3.8 38.8 -87.6 -3.449
06:31 1026 30.3 855 25.25 9.3 48.8 68 3.7 38.6 -87.5 -3.445
06:32 1026 30.3 855 25.25 9.4 48.9 67 3.5 38.3 -87.5 -3.445
06:33 1026 30.3 855 25.25 9.5 49 67 3.6 38.5 -87.5 -3.445
06:34 1026 30.3 855 25.25 9.5 49 66 3.4 38.2 -87.5 -3.445
06:35 1026 30.3 855 25.25 9.6 49.3 66 3.6 38.5 -87.5 -3.445
06:36 1026 30.3 855 25.25 9.7 49.4 66 3.6 38.4 -87.5 -3.445
06:37 1026 30.3 855 25.25 9.7 49.5 65 3.6 38.4 -87.5 -3.445
06:38 1026 30.3 855 25.25 9.8 49.6 66 3.7 38.7 -87.5 -3.445
06:39 1026 30.3 855 25.25 9.8 49.6 67 4 39.1 -87.4 -3.441
06:40 1026 30.3 855 25.25 9.7 49.5 67 3.9 39.1 -87.4 -3.441
06:41 1026 30.3 855 25.25 9.6 49.4 69 4.3 39.7 -87.4 -3.441
06:42 1026 30.3 855 25.25 9.5 49.1 69 4.1 39.5 -87.4 -3.441
06:43 1026 30.3 855 25.25 9.5 49 69 4.2 39.5 -87.4 -3.441
06:44 1026 30.3 855 25.25 9.4 49 70 4.3 39.7 -87.4 -3.441
06:45 1026 30.3 855 25.25 9.4 48.9 70 4.2 39.5 -87.4 -3.441
06:46 1026 30.3 855 25.25 9.4 48.9 70 4.3 39.7 -87.4 -3.441
06:47 1026 30.3 855 25.25 9.4 48.9 70 4.3 39.7 -87.3 -3.437
06:48 1026 30.3 855 25.25 9.4 48.8 71 4.4 40 -87.3 -3.437
06:49 1026 30.3 855 25.25 9.4 48.9 72 4.7 40.4 -87.3 -3.437
06:50 1026 30.3 855 25.25 9.3 48.8 72 4.5 40.2 -87.3 -3.437
06:51 1026 30.3 855 25.25 9.3 48.8 72 4.6 40.3 -87.3 -3.437
06:52 1026 30.3 855 25.25 9.4 49 72 4.7 40.4 -87.3 -3.437
06:53 1026 30.3 855 25.25 9.5 49.1 73 4.9 40.7 -87.3 -3.437
06:54 1026 30.3 855 25.25 9.6 49.2 72 4.9 40.8 -87.3 -3.437
06:55 1026 30.3 855 25.25 9.6 49.3 71 4.7 40.5 -87.2 -3.433
06:56 1026 30.3 855 25.25 9.7 49.5 70 4.6 40.2 -87.2 -3.433
06:57 1026 30.3 855 25.25 9.8 49.6 72 5 41.1 -87.2 -3.433
06:58 1026 30.3 855 25.25 9.9 49.7 72 5.2 41.3 -87.2 -3.433
06:59 1026 30.3 855 25.25 9.9 49.7 71 4.9 40.8 -87.2 -3.433
07:00 1026 30.3 855 25.25 9.9 49.7 72 5 41 -87.2 -3.433
07:01 1026 30.3 855 25.25 9.9 49.8 71 4.8 40.7 -87.2 -3.433
07:02 1026 30.3 855 25.25 9.9 49.8 71 4.9 40.9 -87.2 -3.433
07:03 1026 30.3 855 25.25 10 49.9 70 4.8 40.6 -87.2 -3.433
07:04 1026 30.3 855 25.25 10 50.1 70 4.8 40.6 -87.2 -3.433
07:05 1026 30.3 855 25.25 10.1 50.2 71 5.1 41.2 -87.2 -3.433
07:06 1026 30.3 855 25.25 10.2 50.3 73 5.5 41.8 -87.2 -3.433
07:07 1026 30.3 855 25.25 10.2 50.3 72 5.4 41.7 -87.1 -3.429
07:08 1026 30.3 855 25.25 10.2 50.4 72 5.3 41.6 -87.1 -3.429
07:09 1026 30.3 855 25.25 10.3 50.5 72 5.6 42 -87.1 -3.429
07:10 1026 30.3 855 25.25 10.3 50.6 73 5.6 42.1 -87.1 -3.429
07:11 1026 30.3 856 25.28 10.4 50.7 73 5.8 42.4 -87 -3.425
07:12 1026 30.3 855 25.25 10.4 50.7 73 5.9 42.6 -87 -3.425
07:13 1026 30.3 855 25.25 10.4 50.8 74 6.1 42.9 -87 -3.425
07:14 1026 30.3 856 25.28 10.5 50.8 73 5.9 42.6 -87 -3.425
07:15 1026 30.3 856 25.28 10.5 50.9 72 5.6 42.1 -87 -3.425
07:16 1026 30.3 856 25.28 10.6 51.1 73 6 42.8 -87 -3.425
07:17 1026 30.3 856 25.28 10.7 51.2 71 5.7 42.3 -87 -3.425
07:18 1026 30.3 856 25.28 10.8 51.4 72 6 42.8 -87 -3.425
07:19 1026 30.3 856 25.28 10.9 51.6 73 6.2 43.2 -87 -3.425
07:20 1026 30.3 856 25.28 11 51.8 71 5.9 42.6 -87 -3.425
07:21 1026 30.3 856 25.28 11.1 52 71 6 42.8 -86.9 -3.421
07:22 1026 30.3 856 25.28 11.2 52.1 70 5.8 42.5 -86.9 -3.421
07:23 1026 30.3 856 25.28 11.2 52.2 69 5.9 42.6 -86.9 -3.421
07:24 1026 30.3 856 25.28 11.3 52.4 70 6.2 43.1 -86.9 -3.421
07:25 1026 30.3 856 25.28 11.4 52.5 69 6.1 42.9 -86.9 -3.421
07:26 1026 30.3 856 25.28 11.5 52.7 66 5.5 41.9 -86.9 -3.421
07:27 1026 30.3 856 25.28 11.6 52.9 67 5.8 42.4 -86.9 -3.421
07:28 1026 30.3 856 25.28 11.7 53.1 68 6 42.9 -86.9 -3.421
07:29 1026 30.3 856 25.28 11.8 53.2 68 6.1 43 -86.8 -3.417
07:30 1026 30.3 856 25.28 11.9 53.4 67 6 42.7 -86.8 -3.417
07:31 1026 30.3 856 25.28 11.9 53.5 67 6 42.8 -86.8 -3.417
07:32 1026 30.3 856 25.28 12 53.6 69 6.4 43.6 -86.8 -3.417
07:33 1026 30.3 856 25.28 12.1 53.8 66 6.1 42.9 -86.8 -3.417
07:34 1026 30.3 856 25.28 12.2 53.9 67 6.2 43.1 -86.7 -3.413
07:35 1026 30.3 856 25.28 12.3 54.1 67 6.3 43.4 -86.7 -3.413
07:36 1026 30.3 856 25.28 12.4 54.3 67 6.5 43.7 -86.7 -3.413
07:37 1026 30.3 856 25.28 12.5 54.5 65 6.2 43.1 -86.7 -3.413
07:38 1026 30.3 856 25.28 12.6 54.7 68 6.9 44.4 -86.7 -3.413
07:39 1026 30.3 856 25.28 12.7 54.9 66 6.5 43.8 -86.7 -3.413
07:40 1026 30.3 856 25.28 12.8 55 66 6.7 44.1 -86.6 -3.409
07:41 1026 30.3 856 25.28 12.9 55.2 63 6 42.9 -86.6 -3.409
07:42 1026 30.3 856 25.28 13 55.4 62 6 42.7 -86.6 -3.409
07:43 1026 30.3 856 25.28 13.1 55.6 61 5.7 42.3 -86.6 -3.409
07:44 1026 30.3 856 25.28 13.2 55.7 62 6.2 43.1 -86.5 -3.406
07:45 1026 30.3 856 25.28 13.3 55.9 59 5.4 41.8 -86.5 -3.406
07:46 1026 30.3 856 25.28 13.3 55.9 62 6.2 43.2 -86.5 -3.406
07:47 1026 30.3 856 25.28 13.4 56.1 59 5.5 41.9 -86.5 -3.406
07:48 1026 30.3 856 25.28 13.5 56.2 58 5.4 41.7 -86.5 -3.406
07:49 1026 30.3 856 25.28 13.5 56.3 63 6.6 43.8 -86.5 -3.406
07:50 1026 30.3 856 25.28 13.6 56.4 59 5.9 42.6 -86.4 -3.402
07:51 1026 30.3 856 25.28 13.6 56.5 63 6.7 44 -86.4 -3.402
07:52 1026 30.3 856 25.28 13.7 56.7 61 6.3 43.3 -86.4 -3.402
07:53 1026 30.3 856 25.28 13.8 56.8 60 6.3 43.4 -86.3 -3.398
07:54 1026 30.3 856 25.28 13.8 56.9 57 5.6 42.1 -86.3 -3.398
07:55 1026 30.3 856 25.28 13.9 57 57 5.7 42.2 -86.3 -3.398
07:56 1026 30.3 856 25.28 13.9 57.1 61 6.6 43.8 -86.3 -3.398
07:57 1026 30.3 856 25.28 14 57.3 57 5.6 42.2 -86.2 -3.394
07:58 1026 30.3 856 25.28 14.1 57.5 58 6 42.8 -86.2 -3.394
07:59 1026 30.3 856 25.28 14.2 57.5 62 7.1 44.8 -86.2 -3.394
08:00 1026 30.3 856 25.28 14.3 57.7 64 7.5 45.6 -86.1 -3.39
08:01 1026 30.3 856 25.28 14.4 57.9 59 6.5 43.7 -86.1 -3.39
08:02 1026 30.3 856 25.28 14.5 58.1 59 6.6 44 -86 -3.386
08:03 1026 30.3 856 25.28 14.5 58.2 59 6.8 44.2 -86 -3.386
08:04 1026 30.3 856 25.28 14.5 58.2 58 6.5 43.6 -86 -3.386
08:05 1026 30.3 856 25.28 14.5 58.2 57 6.1 43 -85.9 -3.382
08:06 1026 30.3 856 25.28 14.6 58.2 60 7 44.6 -85.9 -3.382
08:07 1026 30.3 856 25.28 14.6 58.4 57 6.4 43.5 -85.9 -3.382
08:08 1026 30.3 856 25.28 14.6 58.3 59 6.8 44.2 -85.8 -3.378
08:09 1027 30.33 856 25.28 14.7 58.4 61 7.3 45.1 -85.8 -3.378
08:10 1027 30.33 856 25.28 14.8 58.6 59 6.9 44.3 -85.8 -3.378
08:11 1027 30.33 856 25.28 14.8 58.6 60 7.1 44.8 -85.7 -3.374
08:12 1027 30.33 856 25.28 14.8 58.6 58 6.7 44.1 -85.7 -3.374
08:13 1027 30.33 856 25.28 14.8 58.6 57 6.4 43.6 -85.7 -3.374
08:14 1026 30.3 856 25.28 14.8 58.6 61 7.5 45.5 -85.6 -3.37
08:15 1026 30.3 856 25.28 14.9 58.7 58 6.6 43.9 -85.6 -3.37
08:16 1026 30.3 856 25.28 14.9 58.8 57 6.6 43.9 -85.6 -3.37
08:17 1027 30.33 856 25.28 14.9 58.8 57 6.6 43.9 -85.6 -3.37
08:18 1027 30.33 856 25.28 14.9 58.9 56 6.3 43.4 -85.5 -3.366
08:19 1026 30.3 856 25.28 15 58.9 58 6.7 44.1 -85.5 -3.366
08:20 1026 30.3 856 25.28 15 59 57 6.6 43.8 -85.5 -3.366
08:21 1026 30.3 856 25.28 15.1 59.3 58 7.1 44.7 -85.4 -3.362
08:22 1026 30.3 856 25.28 15.2 59.4 56 6.5 43.7 -85.4 -3.362
08:23 1026 30.3 856 25.28 15.3 59.6 62 8.1 46.6 -85.4 -3.362
08:24 1026 30.3 856 25.28 15.4 59.8 55 6.6 43.9 -85.3 -3.358
08:25 1026 30.3 856 25.28 15.5 59.9 54 6.3 43.4 -85.3 -3.358
08:26 1027 30.33 856 25.28 15.5 59.9 56 6.8 44.3 -85.3 -3.358
08:27 1027 30.33 856 25.28 15.6 60.1 56 6.9 44.4 -85.3 -3.358
08:28 1026 30.3 856 25.28 15.8 60.4 56 7.2 44.9 -85.2 -3.354
08:29 1026 30.3 856 25.28 15.9 60.6 56 7.1 44.8 -85.2 -3.354
08:30 1026 30.3 856 25.28 15.9 60.7 57 7.4 45.4 -85.1 -3.35
08:31 1027 30.33 856 25.28 16.1 60.9 53 6.6 43.9 -85.1 -3.35
08:32 1027 30.33 856 25.28 16.1 61.1 54 6.8 44.2 -85.1 -3.35
08:33 1027 30.33 856 25.28 16.2 61.2 58 8 46.4 -85.1 -3.35
08:34 1027 30.33 856 25.28 16.4 61.4 52 6.6 43.9 -85 -3.346
08:35 1027 30.33 856 25.28 16.5 61.7 54 7.1 44.8 -85 -3.346
08:36 1027 30.33 856 25.28 16.6 62 52 6.8 44.3 -85 -3.346
08:37 1027 30.33 856 25.28 16.8 62.2 52 7.1 44.7 -84.9 -3.343
08:38 1027 30.33 856 25.28 16.9 62.4 49 6.4 43.5 -84.9 -3.343
08:39 1027 30.33 856 25.28 17.1 62.7 51 6.9 44.4 -84.9 -3.343
08:40 1027 30.33 856 25.28 17.1 62.9 45 5.4 41.7 -84.8 -3.339
08:41 1027 30.33 856 25.28 17.2 62.9 46 5.5 41.8 -84.8 -3.339
08:42 1027 30.33 856 25.28 17.2 63 49 6.5 43.7 -84.7 -3.335
08:43 1027 30.33 856 25.28 17.4 63.2 47 5.9 42.6 -84.7 -3.335
08:44 1027 30.33 856 25.28 17.5 63.5 53 7.9 46.1 -84.6 -3.331
08:45 1027 30.33 856 25.28 17.6 63.7 47 6.2 43.2 -84.4 -3.323
08:46 1027 30.33 856 25.28 17.7 63.9 48 6.8 44.2 -84.3 -3.319
08:47 1027 30.33 856 25.28 17.9 64.2 49 7.2 45 -84.1 -3.311
08:48 1027 30.33 856 25.28 18.1 64.6 48 7 44.7 -84 -3.307
08:49 1027 30.33 856 25.28 18.3 64.9 48 7.2 45 -83.9 -3.303
08:50 1027 30.33 856 25.28 18.3 64.9 45 6.3 43.4 -83.9 -3.303
08:51 1027 30.33 856 25.28 18.2 64.8 44 5.9 42.6 -83.8 -3.299
08:52 1027 30.33 856 25.28 18.2 64.8 47 6.8 44.3 -83.7 -3.295
08:53 1027 30.33 856 25.28 18.3 64.9 47 6.8 44.2 -83.6 -3.291
08:54 1027 30.33 856 25.28 18.2 64.7 43 5.4 41.7 -83.6 -3.291
08:55 1027 30.33 856 25.28 18.1 64.6 47 6.7 44.1 -83.5 -3.287
08:56 1027 30.33 856 25.28 18.2 64.7 44 5.7 42.2 -83.4 -3.283
08:57 1027 30.33 856 25.28 18.1 64.6 45 6.1 43 -83.4 -3.283
08:58 1027 30.33 856 25.28 18.2 64.7 43 5.4 41.8 -83.4 -3.283
08:59 1027 30.33 856 25.28 18.1 64.7 43 5.4 41.8 -83.4 -3.283
09:00 1027 30.33 856 25.28 18.2 64.7 44 5.8 42.4 -83.5 -3.287
09:01 1027 30.33 856 25.28 18.1 64.5 42 5.1 41.2 -83.6 -3.291
09:02 1026 30.3 856 25.28 18.1 64.5 42 5 41 -83.5 -3.287
09:03 1026 30.3 856 25.28 18.1 64.5 47 6.7 44 -83.4 -3.283
09:04 1026 30.3 856 25.28 18.2 64.7 46 6.5 43.7 -83.3 -3.28
09:05 1026 30.3 856 25.28 18.4 65.1 42 5.5 41.9 -83.3 -3.28
09:06 1026 30.3 856 25.28 18.5 65.2 42 5.4 41.7 -83.2 -3.276
09:07 1026 30.3 856 25.28 18.4 65.2 43 5.6 42.1 -83.2 -3.276
09:08 1026 30.3 856 25.28 18.4 65.1 43 5.8 42.4 -83 -3.268
09:09 1026 30.3 856 25.28 18.5 65.3 43 5.7 42.3 -82.8 -3.26
09:10 1026 30.3 856 25.28 18.6 65.5 45 6.6 43.8 -82.7 -3.256
09:11 1026 30.3 856 25.28 18.5 65.2 43 5.8 42.4 -82.5 -3.248
09:12 1026 30.3 856 25.28 18.4 65 46 6.7 44 -82.5 -3.248
09:13 1026 30.3 856 25.28 18.3 65 44 5.8 42.5 -82.5 -3.248
09:14 1026 30.3 856 25.28 18.4 65.1 45 6.3 43.3 -82.5 -3.248
09:15 1026 30.3 856 25.28 18.4 65.2 42 5.3 41.6 -82.5 -3.248
09:16 1026 30.3 856 25.28 18.6 65.6 44 6.3 43.3 -82.4 -3.244
09:17 1026 30.3 856 25.28 18.9 66 44 6.6 43.9 -82.3 -3.24
09:18 1026 30.3 856 25.28 19 66.1 44 6.6 43.9 -82.3 -3.24
09:19 1026 30.3 856 25.28 18.9 66 41 5.4 41.6 -82.2 -3.236
09:20 1026 30.3 856 25.28 18.9 66.1 40 5.2 41.4 -82.2 -3.236
09:21 1026 30.3 856 25.28 18.9 65.9 43 6.1 43 -82.1 -3.232
09:22 1026 30.3 856 25.28 18.8 65.8 42 5.6 42 -82.1 -3.232
09:23 1026 30.3 856 25.28 18.7 65.6 45 6.6 44 -82.1 -3.232
09:24 1026 30.3 856 25.28 18.7 65.6 40 4.9 40.9 -82.1 -3.232
09:25 1026 30.3 856 25.28 18.7 65.7 50 8.1 46.6 -82.1 -3.232
09:26 1026 30.3 856 25.28 18.8 65.8 41 5.2 41.4 -82.1 -3.232
09:27 1026 30.3 856 25.28 18.8 65.9 41 5.5 41.9 -82 -3.228
09:28 1026 30.3 856 25.28 18.9 66 40 5 41 -82.1 -3.232
09:29 1026 30.3 856 25.28 18.9 66.1 43 6.2 43.1 -82.1 -3.232
09:30 1026 30.3 856 25.28 19.1 66.4 40 5.4 41.7 -82.1 -3.232
09:31 1026 30.3 856 25.28 19.2 66.5 43 6.4 43.6 -82.1 -3.232
09:32 1026 30.3 856 25.28 19.2 66.6 39 5.1 41.3 -82 -3.228
09:33 1026 30.3 856 25.28 19.1 66.4 39 4.9 40.8 -81.9 -3.224
09:34 1026 30.3 856 25.28 19.1 66.3 41 5.5 42 -81.8 -3.22
09:35 1026 30.3 856 25.28 19.1 66.3 43 6.2 43.1 -81.7 -3.217
09:36 1026 30.3 856 25.28 19.1 66.3 47 7.8 46 -81.6 -3.213
09:37 1026 30.3 856 25.28 19.1 66.4 47 7.8 46 -81.6 -3.213
09:38 1026 30.3 856 25.28 19.1 66.5 40 5.5 41.8 -81.5 -3.209
09:39 1026 30.3 856 25.28 19.1 66.5 41 5.8 42.4 -81.5 -3.209
09:40 1026 30.3 856 25.28 19.1 66.3 39 5 41 -81.5 -3.209
09:41 1026 30.3 856 25.28 19 66.1 45 6.9 44.4 -81.4 -3.205
09:42 1026 30.3 856 25.28 19 66.2 41 5.6 42.1 -81.4 -3.205
09:43 1026 30.3 856 25.28 19 66.1 42 5.9 42.6 -81.3 -3.201
09:44 1026 30.3 856 25.28 19 66.3 42 6.1 43 -81.3 -3.201
09:45 1026 30.3 856 25.28 19.1 66.3 37 4.3 39.8 -81.3 -3.201
09:46 1026 30.3 856 25.28 19.1 66.3 37 4.3 39.7 -81.2 -3.197
09:47 1026 30.3 856 25.28 19.1 66.4 38 4.6 40.2 -81.2 -3.197
09:48 1026 30.3 856 25.28 19.3 66.7 42 6.1 43 -81.1 -3.193
09:49 1026 30.3 855 25.25 19.4 66.9 40 5.5 42 -81.1 -3.193
09:50 1026 30.3 856 25.28 19.4 67 42 6.3 43.3 -81.1 -3.193
09:51 1026 30.3 856 25.28 19.4 66.9 43 6.5 43.6 -81.1 -3.193
09:52 1026 30.3 855 25.25 19.4 67 36 4.3 39.8 -81 -3.189
09:53 1026 30.3 856 25.28 19.5 67.2 41 6 42.8 -81 -3.189
09:54 1026 30.3 856 25.28 19.6 67.3 37 4.7 40.5 -80.9 -3.185
09:55 1026 30.3 855 25.25 19.6 67.3 39 5.6 42 -80.9 -3.185
09:56 1026 30.3 855 25.25 19.7 67.4 39 5.4 41.8 -80.8 -3.181
09:57 1026 30.3 855 25.25 19.7 67.4 36 4.2 39.6 -80.8 -3.181
09:58 1026 30.3 855 25.25 19.6 67.4 36 4.2 39.6 -80.8 -3.181
09:59 1026 30.3 855 25.25 19.5 67.1 40 5.6 42 -80.8 -3.181
10:00 1026 30.3 855 25.25 19.5 67.2 35 3.8 38.8 -80.7 -3.177
10:01 1026 30.3 855 25.25 19.7 67.4 37 4.7 40.4 -80.7 -3.177
10:02 1026 30.3 855 25.25 19.8 67.7 38 5.2 41.4 -80.8 -3.181
10:03 1026 30.3 855 25.25 19.9 67.7 37 4.9 40.8 -80.7 -3.177
10:04 1026 30.3 855 25.25 19.8 67.6 39 5.7 42.3 -80.6 -3.173
10:05 1026 30.3 855 25.25 19.8 67.6 41 6.2 43.1 -80.5 -3.169
10:06 1026 30.3 855 25.25 19.9 67.7 38 5.3 41.5 -80.4 -3.165
10:07 1026 30.3 855 25.25 20 68 39 5.6 42.1 -80.3 -3.161
10:08 1026 30.3 855 25.25 20.2 68.4 36 4.6 40.4 -80.2 -3.157
10:09 1026 30.3 855 25.25 20.3 68.5 38 5.6 42.1 -80.3 -3.161
10:10 1026 30.3 855 25.25 20.3 68.5 31 2.6 36.6 -80.3 -3.161
10:11 1026 30.3 855 25.25 20.4 68.7 32 3.3 37.9 -80.4 -3.165
10:12 1026 30.3 855 25.25 20.6 69 38 5.9 42.6 -80.3 -3.161
10:13 1026 30.3 855 25.25 20.5 69 37 5.7 42.2 -80.2 -3.157
10:14 1026 30.3 855 25.25 20.5 68.9 40 6.7 44.1 -80.1 -3.154
10:15 1026 30.3 855 25.25 20.5 68.8 38 5.7 42.3 -79.9 -3.146
10:16 1026 30.3 855 25.25 20.5 68.8 45 8.4 47.1 -79.8 -3.142
10:17 1026 30.3 855 25.25 20.4 68.8 40 6.4 43.5 -79.7 -3.138
10:18 1026 30.3 855 25.25 20.4 68.7 35 4.8 40.6 -79.6 -3.134
10:19 1026 30.3 855 25.25 20.2 68.4 36 4.9 40.9 -79.6 -3.134
10:20 1026 30.3 855 25.25 20.1 68.2 38 5.5 41.9 -79.5 -3.13
10:21 1026 30.3 855 25.25 20.2 68.3 42 7 44.6 -79.5 -3.13
10:22 1026 30.3 855 25.25 20.1 68.2 35 4.5 40.2 -79.4 -3.126
10:23 1026 30.3 855 25.25 20.2 68.3 37 5.3 41.5 -79.4 -3.126
10:24 1026 30.3 855 25.25 20.3 68.6 36 4.9 40.9 -79.4 -3.126
10:25 1026 30.3 855 25.25 20.3 68.5 33 3.8 38.9 -79.4 -3.126
10:26 1026 30.3 855 25.25 20.2 68.3 35 4.5 40.2 -79.3 -3.122
10:27 1026 30.3 855 25.25 20.2 68.3 32 3.1 37.6 -79.2 -3.118
10:28 1026 30.3 855 25.25 20.2 68.4 38 5.5 41.9 -79.1 -3.114
10:29 1026 30.3 855 25.25 20.3 68.6 36 4.8 40.7 -79.1 -3.114
10:30 1026 30.3 855 25.25 20.3 68.6 32 3.4 38.1 -79 -3.11
10:31 1026 30.3 855 25.25 20.2 68.4 31 2.9 37.3 -78.9 -3.106
10:32 1026 30.3 855 25.25 20.1 68.2 32 2.9 37.3 -78.9 -3.106
10:33 1026 30.3 855 25.25 20 68 33 3.4 38.1 -78.9 -3.106
10:34 1026 30.3 855 25.25 20 68 36 4.8 40.6 -78.8 -3.102
10:35 1026 30.3 855 25.25 20.2 68.4 43 7.5 45.5 -78.7 -3.098
10:36 1026 30.3 855 25.25 20.4 68.7 35 4.7 40.4 -78.8 -3.102
10:37 1026 30.3 855 25.25 20.5 68.9 37 5.6 42 -78.7 -3.098
10:38 1026 30.3 855 25.25 20.6 69.1 36 5 41.1 -78.6 -3.094
10:39 1026 30.3 855 25.25 20.5 69 36 5.2 41.4 -78.5 -3.091
10:40 1026 30.3 855 25.25 20.5 68.9 40 6.7 44 -78.4 -3.087
10:41 1026 30.3 855 25.25 20.5 68.9 37 5.4 41.7 -78.4 -3.087
10:42 1026 30.3 855 25.25 20.6 69 33 3.9 38.9 -78.3 -3.083
10:43 1026 30.3 855 25.25 20.7 69.2 35 4.9 40.9 -78.2 -3.079
10:44 1026 30.3 855 25.25 20.7 69.2 39 6.2 43.2 -78.2 -3.079
10:45 1026 30.3 855 25.25 20.7 69.3 33 3.9 39 -78.1 -3.075
10:46 1026 30.3 855 25.25 20.8 69.5 41 7.3 45.1 -78 -3.071
10:47 1026 30.3 855 25.25 21 69.8 41 7.3 45.1 -77.9 -3.067
10:48 1026 30.3 855 25.25 21.2 70.1 38 6.5 43.7 -77.8 -3.063
10:49 1026 30.3 856 25.28 21.2 70.1 33 4.6 40.2 -77.8 -3.063
10:50 1026 30.3 856 25.28 21.1 69.9 40 7.3 45.1 -77.7 -3.059
10:51 1026 30.3 856 25.28 20.9 69.6 33 4.4 39.9 -77.6 -3.055
10:52 1026 30.3 856 25.28 20.7 69.3 40 6.7 44 -77.6 -3.055
10:53 1026 30.3 856 25.28 20.7 69.3 36 5.4 41.8 -77.5 -3.051
10:54 1026 30.3 856 25.28 20.8 69.5 33 4.1 39.4 -77.4 -3.047
10:55 1026 30.3 856 25.28 20.8 69.5 35 4.9 40.8 -77.4 -3.047
10:56 1026 30.3 856 25.28 20.8 69.5 42 7.8 46 -77.3 -3.043
10:57 1026 30.3 855 25.25 20.9 69.6 44 8.5 47.2 -77.2 -3.039
10:58 1026 30.3 856 25.28 21 69.8 39 6.8 44.2 -77.1 -3.035
10:59 1026 30.3 855 25.25 21.2 70.1 36 5.9 42.5 -77 -3.031
11:00 1026 30.3 855 25.25 21.2 70.2 32 4.2 39.6 -76.9 -3.028
11:01 1026 30.3 855 25.25 21.2 70.2 33 4.4 39.9 -76.9 -3.028
11:02 1026 30.3 855 25.25 21.1 70.1 41 7.4 45.4 -76.8 -3.024
11:03 1026 30.3 855 25.25 21 69.8 33 4.3 39.7 -76.7 -3.02
11:04 1026 30.3 855 25.25 20.9 69.7 40 7.1 44.8 -76.7 -3.02
11:05 1026 30.3 855 25.25 21 69.7 41 7.3 45.2 -76.6 -3.016
11:06 1026 30.3 855 25.25 21 69.8 37 6 42.9 -76.5 -3.012
11:07 1026 30.3 855 25.25 21.1 69.9 35 5.2 41.4 -76.5 -3.012
11:08 1026 30.3 855 25.25 21 69.7 34 4.5 40.2 -76.4 -3.008
11:09 1026 30.3 855 25.25 20.9 69.7 32 4 39.1 -76.3 -3.004
11:10 1026 30.3 855 25.25 20.9 69.7 33 4.1 39.3 -76.3 -3.004
11:11 1026 30.3 855 25.25 20.9 69.7 33 4.3 39.7 -76.2 -3
11:12 1026 30.3 855 25.25 21 69.8 33 4.3 39.7 -76.1 -2.996
11:13 1026 30.3 855 25.25 21 69.8 40 7.1 44.8 -76.1 -2.996
11:14 1026 30.3 855 25.25 21.1 69.9 30 3 37.4 -76 -2.992
11:15 1026 30.3 855 25.25 21 69.8 34 4.8 40.7 -76 -2.992
11:16 1026 30.3 855 25.25 21 69.8 30 2.9 37.3 -75.9 -2.988
11:17 1026 30.3 855 25.25 21 69.8 30 3.1 37.6 -75.9 -2.988
11:18 1026 30.3 855 25.25 21 69.8 33 4.4 40 -75.8 -2.984
11:19 1026 30.3 855 25.25 21.1 70 33 4.4 40 -75.8 -2.984
11:20 1026 30.3 855 25.25 21.1 70.1 35 5.4 41.7 -75.8 -2.984
11:21 1026 30.3 855 25.25 21 69.9 32 4.1 39.4 -75.8 -2.984
11:22 1026 30.3 855 25.25 21 69.8 28 2.2 35.9 -75.7 -2.98
11:23 1026 30.3 855 25.25 21.1 69.9 31 3.7 38.6 -75.6 -2.976
11:24 1026 30.3 855 25.25 21.2 70.2 28 2.3 36.2 -75.5 -2.972
11:25 1026 30.3 855 25.25 21.4 70.6 30 3.4 38.1 -75.4 -2.969
11:26 1026 30.3 855 25.25 21.5 70.8 37 6.3 43.4 -75.4 -2.969
11:27 1026 30.3 855 25.25 21.5 70.8 34 5.2 41.4 -75.3 -2.965
11:28 1026 30.3 855 25.25 21.5 70.6 34 5.2 41.3 -75.3 -2.965
11:29 1026 30.3 855 25.25 21.4 70.4 30 3.1 37.6 -75.3 -2.965
11:30 1026 30.3 855 25.25 21.3 70.4 31 3.9 39 -75.2 -2.961
11:31 1026 30.3 855 25.25 21.4 70.5 38 6.7 44.1 -75.2 -2.961
11:32 1026 30.3 855 25.25 21.5 70.7 37 6.2 43.1 -75.1 -2.957
11:33 1026 30.3 855 25.25 21.5 70.6 38 6.6 43.8 -75 -2.953
11:34 1026 30.3 855 25.25 21.5 70.7 32 4.5 40.1 -74.9 -2.949
11:35 1026 30.3 855 25.25 21.4 70.6 34 5.2 41.4 -74.9 -2.949
11:36 1026 30.3 855 25.25 21.4 70.6 32 4.4 40 -74.9 -2.949
11:37 1026 30.3 855 25.25 21.5 70.6 38 6.6 43.9 -74.9 -2.949
11:38 1026 30.3 855 25.25 21.5 70.8 31 3.7 38.6 -74.9 -2.949
11:39 1026 30.3 855 25.25 21.5 70.8 32 4.2 39.5 -74.9 -2.949
11:40 1026 30.3 855 25.25 21.6 70.9 30 3.5 38.4 -74.9 -2.949
11:41 1026 30.3 855 25.25 21.6 70.8 32 4.5 40.1 -74.9 -2.949
11:42 1026 30.3 855 25.25 21.6 70.8 33 4.8 40.7 -74.9 -2.949
11:43 1026 30.3 855 25.25 21.5 70.7 34 4.9 40.9 -74.9 -2.949
11:44 1026 30.3 855 25.25 21.5 70.7 33 4.9 40.8 -75 -2.953
11:45 1026 30.3 855 25.25 21.6 70.8 36 6.2 43.1 -75 -2.953
11:46 1026 30.3 855 25.25 21.6 70.9 34 5.4 41.8 -75 -2.953
11:47 1026 30.3 855 25.25 21.7 71.1 34 5.3 41.5 -75 -2.953
11:48 1026 30.3 855 25.25 21.7 71.1 35 5.7 42.3 -74.9 -2.949
11:49 1026 30.3 855 25.25 21.7 71.1 37 6.4 43.6 -74.9 -2.949
11:50 1026 30.3 855 25.25 21.9 71.3 29 3.4 38.1 -74.8 -2.945
11:51 1026 30.3 855 25.25 21.8 71.2 29 3.1 37.6 -74.8 -2.945
11:52 1026 30.3 855 25.25 21.6 70.9 32 4.4 40 -74.8 -2.945
11:53 1026 30.3 855 25.25 21.5 70.6 32 4.2 39.5 -74.9 -2.949
11:54 1026 30.3 855 25.25 21.4 70.6 36 6.1 43 -74.9 -2.949
11:55 1026 30.3 855 25.25 21.5 70.7 32 4.3 39.7 -74.7 -2.941
11:56 1026 30.3 855 25.25 21.5 70.8 31 3.8 38.8 -74.5 -2.933
11:57 1026 30.3 855 25.25 21.7 71 31 3.8 38.9 -74.5 -2.933
11:58 1026 30.3 855 25.25 21.7 71.1 28 2.6 36.8 -74.5 -2.933
11:59 1026 30.3 855 25.25 21.8 71.2 35 5.6 42.2 -74.5 -2.933
12:00 1026 30.3 855 25.25 21.8 71.3 27 2.3 36.1 -74.5 -2.933
12:01 1026 30.3 855 25.25 21.9 71.5 28 2.9 37.1 -74.4 -2.929
12:02 1026 30.3 855 25.25 21.9 71.5 28 2.6 36.7 -74.4 -2.929
12:03 1026 30.3 855 25.25 22 71.5 32 4.9 40.9 -74.4 -2.929
12:04 1026 30.3 855 25.25 22.1 71.8 27 2.4 36.2 -74.4 -2.929
12:05 1026 30.3 855 25.25 22.2 72 31 4.5 40.2 -74.3 -2.925
12:06 1026 30.3 855 25.25 22.3 72.2 26 2.2 36 -74.2 -2.921
12:07 1026 30.3 855 25.25 22.4 72.3 35 6.3 43.4 -74.1 -2.917
12:08 1026 30.3 855 25.25 22.6 72.6 30 4.1 39.5 -73.9 -2.909
12:09 1026 30.3 855 25.25 22.6 72.7 32 5.2 41.3 -73.8 -2.906
12:10 1026 30.3 855 25.25 22.6 72.7 28 3.3 38 -73.8 -2.906
12:11 1026 30.3 855 25.25 22.6 72.6 35 6.6 43.9 -73.8 -2.906
12:12 1026 30.3 855 25.25 22.5 72.6 31 5 41 -73.8 -2.906
12:13 1026 30.3 855 25.25 22.5 72.6 30 4.5 40.1 -73.7 -2.902
12:14 1026 30.3 855 25.25 22.4 72.3 29 3.6 38.5 -73.6 -2.898
12:15 1026 30.3 855 25.25 22.4 72.2 33 5.3 41.5 -73.6 -2.898
12:16 1026 30.3 855 25.25 22.4 72.3 26 2.4 36.4 -73.6 -2.898
12:17 1026 30.3 855 25.25 22.5 72.4 38 7.6 45.7 -73.6 -2.898
12:18 1026 30.3 855 25.25 22.6 72.8 29 3.9 39 -73.5 -2.894
12:19 1026 30.3 855 25.25 22.8 73 28 3.5 38.2 -73.4 -2.89
12:20 1026 30.3 855 25.25 22.9 73.2 38 7.9 46.2 -73.2 -2.882
12:21 1026 30.3 855 25.25 23 73.5 30 4.9 40.9 -73.1 -2.878
12:22 1026 30.3 855 25.25 23 73.4 30 4.7 40.5 -73.2 -2.882
12:23 1026 30.3 855 25.25 23.1 73.5 26 3 37.4 -73.1 -2.878
12:24 1026 30.3 855 25.25 23.1 73.5 28 4 39.2 -72.9 -2.87
12:25 1026 30.3 855 25.25 23.1 73.6 34 6.6 43.8 -72.9 -2.87
12:26 1026 30.3 855 25.25 23.3 74 27 3.5 38.4 -72.8 -2.866
12:27 1026 30.3 855 25.25 23.3 73.9 27 3.4 38.1 -72.7 -2.862
12:28 1026 30.3 855 25.25 23.1 73.5 29 4.4 40 -72.8 -2.866
12:29 1026 30.3 855 25.25 23 73.3 27 3.4 38.2 -72.8 -2.866
12:30 1026 30.3 855 25.25 23 73.3 30 4.6 40.2 -72.9 -2.87
12:31 1026 30.3 855 25.25 22.9 73.3 28 3.5 38.2 -72.9 -2.87
12:32 1026 30.3 855 25.25 22.9 73.2 30 4.7 40.4 -72.8 -2.866
12:33 1026 30.3 855 25.25 22.8 73.1 32 5.6 42.2 -72.8 -2.866
12:34 1026 30.3 855 25.25 22.9 73.2 31 5.2 41.3 -72.7 -2.862
12:35 1026 30.3 855 25.25 23 73.3 28 3.6 38.5 -72.6 -2.858
12:36 1026 30.3 855 25.25 22.9 73.3 29 4.3 39.7 -72.6 -2.858
12:37 1026 30.3 855 25.25 23 73.3 28 3.9 39 -72.5 -2.854
12:38 1026 30.3 855 25.25 23 73.4 32 5.9 42.5 -72.5 -2.854
12:39 1026 30.3 855 25.25 23.1 73.5 36 7.3 45.2 -72.4 -2.85
12:40 1026 30.3 855 25.25 23.1 73.6 30 4.7 40.5 -72.4 -2.85
12:41 1026 30.3 855 25.25 23 73.4 32 5.5 41.9 -72.4 -2.85
12:42 1026 30.3 855 25.25 22.9 73.3 29 4 39.2 -72.4 -2.85
12:43 1026 30.3 855 25.25 23 73.4 34 6.3 43.4 -72.3 -2.846
12:44 1026 30.3 855 25.25 23.1 73.6 28 3.6 38.5 -72.3 -2.846
12:45 1026 30.3 855 25.25 23.2 73.7 30 4.9 40.8 -72.2 -2.843
12:46 1026 30.3 855 25.25 23.3 73.9 30 4.8 40.6 -72.2 -2.843
12:47 1026 30.3 855 25.25 23.3 74 27 3.4 38.1 -72.1 -2.839
12:48 1026 30.3 855 25.25 23.3 73.9 27 3.4 38.2 -72.1 -2.839
12:49 1026 30.3 855 25.25 23.3 73.9 31 5.2 41.4 -72.1 -2.839
12:50 1026 30.3 855 25.25 23.4 74.1 30 5.2 41.4 -72 -2.835
12:51 1026 30.3 855 25.25 23.5 74.3 34 7 44.5 -72 -2.835
12:52 1026 30.3 855 25.25 23.6 74.4 27 3.9 39 -72 -2.835
12:53 1026 30.3 855 25.25 23.5 74.3 29 4.8 40.7 -72 -2.835
12:54 1025 30.27 855 25.25 23.5 74.3 32 6.1 42.9 -72 -2.835
12:55 1026 30.3 855 25.25 23.5 74.4 30 5 40.9 -71.9 -2.831
12:56 1026 30.3 855 25.25 23.5 74.3 28 4.4 39.9 -71.8 -2.827
12:57 1025 30.27 855 25.25 23.5 74.2 27 3.9 39 -71.8 -2.827
12:58 1025 30.27 855 25.25 23.5 74.2 28 3.9 39.1 -71.7 -2.823
12:59 1025 30.27 855 25.25 23.6 74.4 36 7.6 45.8 -71.4 -2.811
13:00 1025 30.27 855 25.25 23.8 74.8 33 6.8 44.3 -71.2 -2.803
13:01 1025 30.27 855 25.25 23.8 74.8 32 6.1 43 -71.2 -2.803
13:02 1025 30.27 855 25.25 23.9 75 32 6.3 43.3 -71.3 -2.807
13:03 1025 30.27 855 25.25 24 75.2 30 5.5 42 -71.3 -2.807
13:04 1025 30.27 855 25.25 24 75.2 26 3.8 38.8 -71.3 -2.807
13:05 1025 30.27 855 25.25 23.9 75 26 3.3 38 -71.4 -2.811
13:06 1025 30.27 855 25.25 23.8 74.8 28 4.6 40.2 -71.4 -2.811
13:07 1025 30.27 855 25.25 23.8 74.8 33 7 44.6 -71.4 -2.811
13:08 1025 30.27 855 25.25 23.9 75 30 5.5 41.9 -71.4 -2.811
13:09 1025 30.27 855 25.25 23.9 75 28 4.7 40.4 -71.3 -2.807
13:10 1025 30.27 855 25.25 24 75.2 28 4.8 40.6 -71.2 -2.803
13:11 1025 30.27 855 25.25 24.1 75.3 31 6.2 43.2 -71.1 -2.799
13:12 1025 30.27 855 25.25 24.2 75.6 28 4.6 40.3 -71.1 -2.799
13:13 1025 30.27 855 25.25 24.1 75.4 27 4.3 39.7 -71.1 -2.799
13:14 1025 30.27 854 25.22 24.1 75.3 30 5.6 42.1 -71.1 -2.799
13:15 1025 30.27 854 25.22 24.2 75.5 27 4.3 39.8 -71 -2.795
13:16 1025 30.27 854 25.22 24.2 75.6 25 3 37.4 -71 -2.795
13:17 1025 30.27 854 25.22 24.2 75.6 26 3.9 39 -71 -2.795
13:18 1025 30.27 854 25.22 24.3 75.8 26 4.1 39.4 -70.9 -2.791
13:19 1025 30.27 854 25.22 24.3 75.8 30 5.8 42.5 -70.8 -2.787
13:20 1025 30.27 854 25.22 24.4 76 28 4.9 40.8 -70.8 -2.787
13:21 1025 30.27 854 25.22 24.4 76 29 5.5 41.9 -70.8 -2.787
13:22 1025 30.27 854 25.22 24.4 75.9 27 4.6 40.3 -70.8 -2.787
13:23 1025 30.27 854 25.22 24.4 75.9 24 2.9 37.3 -70.8 -2.787
13:24 1025 30.27 854 25.22 24.5 76.1 26 4 39.1 -70.7 -2.783
13:25 1025 30.27 854 25.22 24.5 76.2 30 5.9 42.5 -70.7 -2.783
13:26 1025 30.27 854 25.22 24.6 76.3 26 4.2 39.6 -70.6 -2.78
13:27 1025 30.27 854 25.22 24.5 76.1 26 3.8 38.8 -70.7 -2.783
13:28 1025 30.27 854 25.22 24.4 76 26 4.2 39.5 -70.7 -2.783
13:29 1025 30.27 854 25.22 24.5 76 26 4 39.1 -70.7 -2.783
13:30 1025 30.27 854 25.22 24.5 76.1 24 2.6 36.7 -70.5 -2.776
13:31 1025 30.27 854 25.22 24.6 76.2 28 5.3 41.5 -70.3 -2.768
13:32 1025 30.27 854 25.22 24.6 76.3 28 4.9 40.9 -70.1 -2.76
13:33 1025 30.27 854 25.22 24.6 76.3 25 3.5 38.3 -70.1 -2.76
13:34 1025 30.27 854 25.22 24.7 76.4 24 3.1 37.7 -70.2 -2.764
13:35 1025 30.27 854 25.22 24.7 76.4 29 5.7 42.3 -70.3 -2.768
13:36 1025 30.27 854 25.22 24.6 76.3 24 3.1 37.5 -70.2 -2.764
13:37 1025 30.27 854 25.22 24.6 76.3 26 3.8 38.9 -70.2 -2.764
13:38 1025 30.27 854 25.22 24.6 76.3 29 5.7 42.3 -70.2 -2.764
13:39 1025 30.27 854 25.22 24.7 76.4 26 4.1 39.4 -70.2 -2.764
13:40 1025 30.27 854 25.22 24.8 76.6 25 3.7 38.6 -70.1 -2.76
13:41 1025 30.27 854 25.22 24.9 76.7 29 5.7 42.3 -70 -2.756
13:42 1025 30.27 854 25.22 25 76.9 23 2.5 36.5 -69.98 -2.755
13:43 1025 30.27 854 25.22 25.1 77.1 23 3 37.4 -69.89 -2.752
13:44 1025 30.27 854 25.22 25.2 77.3 25 3.8 38.8 -69.75 -2.746
13:45 1025 30.27 854 25.22 25.3 77.6 29 6.1 43.1 -69.72 -2.745
13:46 1025 30.27 854 25.22 25.4 77.6 24 3.6 38.4 -69.71 -2.744
13:47 1025 30.27 854 25.22 25.3 77.6 25 4.1 39.4 -69.73 -2.745
13:48 1025 30.27 854 25.22 25.3 77.6 25 4.2 39.5 -69.69 -2.744
13:49 1025 30.27 854 25.22 25.3 77.5 23 3.1 37.5 -69.71 -2.744
13:50 1025 30.27 854 25.22 25.2 77.4 24 3.3 37.9 -69.66 -2.743
13:51 1025 30.27 854 25.22 25.4 77.7 22 2.2 36 -69.54 -2.738
13:52 1025 30.27 854 25.22 25.3 77.6 22 2.3 36.1 -69.5 -2.736
13:53 1025 30.27 854 25.22 25.3 77.5 22 2.4 36.3 -69.38 -2.731
13:54 1025 30.27 854 25.22 25.3 77.5 24 3.7 38.7 -69.27 -2.727
13:55 1025 30.27 854 25.22 25.5 77.9 24 3.7 38.6 -69.23 -2.726
13:56 1025 30.27 854 25.22 25.5 77.9 27 5.1 41.3 -69.25 -2.726
13:57 1025 30.27 854 25.22 25.5 77.9 24 3.9 39.1 -69.26 -2.727
13:58 1025 30.27 854 25.22 25.4 77.8 30 7 44.5 -69.24 -2.726
13:59 1025 30.27 854 25.22 25.4 77.7 25 4 39.1 -69.22 -2.725
14:00 1025 30.27 854 25.22 25.4 77.7 23 3 37.4 -69.16 -2.723
14:01 1025 30.27 854 25.22 25.4 77.8 23 3 37.4 -69.11 -2.721
14:02 1025 30.27 854 25.22 25.4 77.8 20 1.3 34.3 -69.08 -2.72
14:03 1025 30.27 854 25.22 25.5 77.8 27 5.3 41.5 -68.99 -2.716
14:04 1025 30.27 854 25.22 25.5 78 24 3.6 38.4 -68.94 -2.714
14:05 1025 30.27 854 25.22 25.7 78.2 25 4.4 39.9 -68.88 -2.712
14:06 1025 30.27 854 25.22 25.8 78.4 27 5.8 42.5 -68.83 -2.71
14:07 1025 30.27 854 25.22 25.8 78.4 24 4 39.2 -68.82 -2.709
14:08 1025 30.27 854 25.22 25.8 78.4 21 2.1 35.7 -68.77 -2.707
14:09 1025 30.27 854 25.22 25.7 78.2 23 3.4 38.1 -68.74 -2.706
14:10 1025 30.27 854 25.22 25.6 78.1 20 1.5 34.7 -68.69 -2.704
14:11 1025 30.27 854 25.22 25.6 78.1 27 5.2 41.4 -68.63 -2.702
14:12 1025 30.27 854 25.22 25.6 78.1 20 1.6 34.8 -68.5 -2.697
14:13 1025 30.27 854 25.22 25.7 78.2 24 3.7 38.6 -68.39 -2.693
14:14 1025 30.27 854 25.22 25.8 78.4 19 0.4 32.8 -68.31 -2.689
14:15 1025 30.27 854 25.22 25.9 78.6 22 3.1 37.6 -68.26 -2.687
14:16 1025 30.27 854 25.22 26 78.7 27 5.9 42.7 -68.18 -2.684
14:17 1025 30.27 854 25.22 26 78.8 23 3.6 38.4 -68.14 -2.683
14:18 1025 30.27 854 25.22 26 78.9 21 2.6 36.6 -68.09 -2.681
14:19 1025 30.27 854 25.22 26.1 79 27 6.1 43 -68.01 -2.678
14:20 1025 30.27 854 25.22 26.2 79.2 23 3.8 38.8 -67.93 -2.674
14:21 1025 30.27 854 25.22 26.4 79.6 29 7.1 44.8 -67.91 -2.674
14:22 1025 30.27 854 25.22 26.6 79.9 30 7.9 46.3 -67.91 -2.674
14:23 1025 30.27 854 25.22 26.6 79.9 25 5.1 41.1 -67.91 -2.674
14:24 1025 30.27 854 25.22 26.4 79.6 20 2.2 36 -67.84 -2.671
14:25 1025 30.27 854 25.22 26.2 79.2 22 2.9 37.2 -67.73 -2.667
14:26 1025 30.27 854 25.22 26.1 79 22 3 37.5 -67.65 -2.663
14:27 1025 30.27 854 25.22 26.1 78.9 26 5.3 41.5 -67.53 -2.659
14:28 1025 30.27 854 25.22 26 78.8 22 3 37.4 -67.47 -2.656
14:29 1025 30.27 854 25.22 26 78.7 23 3.5 38.3 -67.44 -2.655
14:30 1025 30.27 854 25.22 26 78.9 21 2.3 36.1 -67.57 -2.66
14:31 1025 30.27 854 25.22 26.1 78.9 24 4.3 39.7 -67.68 -2.665
14:32 1025 30.27 854 25.22 26.2 79.1 23 3.5 38.4 -67.59 -2.661
14:33 1025 30.27 854 25.22 26.2 79.2 27 6 42.9 -67.43 -2.655
14:34 1025 30.27 854 25.22 26.2 79.2 21 2.5 36.5 -67.29 -2.649
14:35 1025 30.27 854 25.22 26.2 79.2 24 4.4 39.9 -67.14 -2.643
14:36 1025 30.27 854 25.22 26.3 79.3 21 2.7 36.8 -67.05 -2.64
14:37 1025 30.27 854 25.22 26.3 79.4 21 2.2 36 -67.02 -2.639
14:38 1025 30.27 854 25.22 26.5 79.7 26 5.9 42.6 -67.07 -2.641
14:39 1025 30.27 854 25.22 26.7 80 20 2.2 35.9 -67.09 -2.641
14:40 1025 30.27 854 25.22 26.6 79.9 27 6.2 43.1 -67.04 -2.639
14:41 1025 30.27 854 25.22 26.6 79.9 20 2.4 36.4 -66.93 -2.635
14:42 1025 30.27 854 25.22 26.5 79.8 27 6.1 43 -66.85 -2.632
14:43 1025 30.27 854 25.22 26.5 79.7 24 4.5 40.1 -66.8 -2.63
14:44 1025 30.27 854 25.22 26.6 79.8 22 3.3 37.9 -66.72 -2.627
14:45 1025 30.27 854 25.22 26.6 79.8 23 4.2 39.6 -66.69 -2.626
14:46 1025 30.27 854 25.22 26.6 79.8 23 3.9 39 -66.63 -2.623
14:47 1025 30.27 854 25.22 26.6 79.9 20 1.8 35.2 -66.62 -2.623
14:48 1025 30.27 854 25.22 26.6 79.9 21 3 37.3 -66.54 -2.62
14:49 1024 30.24 854 25.22 26.7 80.1 25 5.5 42 -66.37 -2.613
14:50 1024 30.24 854 25.22 26.8 80.3 21 2.8 37 -66.23 -2.607
14:51 1024 30.24 854 25.22 26.9 80.4 25 5.7 42.3 -66.12 -2.603
14:52 1024 30.24 854 25.22 26.9 80.5 28 7.1 44.9 -66.01 -2.599
14:53 1024 30.24 854 25.22 27 80.6 25 5.8 42.5 -65.92 -2.595
14:54 1024 30.24 854 25.22 27 80.6 23 4.6 40.3 -65.93 -2.596
14:55 1024 30.24 854 25.22 26.9 80.3 25 5.6 42 -65.97 -2.597
14:56 1024 30.24 854 25.22 26.7 80.1 29 7.5 45.5 -65.96 -2.597
14:57 1024 30.24 854 25.22 26.7 80.1 23 4.2 39.5 -65.93 -2.596
14:58 1024 30.24 854 25.22 26.7 80.1 26 5.7 42.2 -65.87 -2.593
14:59 1024 30.24 853 25.19 26.8 80.3 26 6.3 43.3 -65.75 -2.589
15:00 1024 30.24 853 25.19 26.9 80.4 23 4 39.2 -65.52 -2.58
15:01 1024 30.24 853 25.19 26.9 80.5 21 3.2 37.8 -65.34 -2.572
15:02 1024 30.24 854 25.22 27 80.6 27 6.7 44.1 -65.23 -2.568
15:03 1024 30.24 854 25.22 27.1 80.8 23 4.8 40.6 -65.2 -2.567
15:04 1024 30.24 854 25.22 27.3 81.1 25 6 42.8 -65.12 -2.564
15:05 1024 30.24 853 25.19 27.2 81 20 2.7 36.9 -65.01 -2.559
15:06 1024 30.24 853 25.19 27.1 80.8 25 5.4 41.7 -64.95 -2.557
15:07 1024 30.24 853 25.19 27.1 80.7 23 4.6 40.3 -64.86 -2.554
15:08 1024 30.24 853 25.19 27 80.6 24 5.2 41.4 -64.72 -2.548
15:09 1024 30.24 853 25.19 27 80.6 22 3.9 38.9 -64.57 -2.542
15:10 1024 30.24 853 25.19 27 80.6 24 5 41 -64.55 -2.541
15:11 1024 30.24 853 25.19 27 80.5 24 5.1 41.1 -64.52 -2.54
15:12 1024 30.24 853 25.19 27 80.6 28 7.3 45.2 -64.43 -2.537
15:13 1024 30.24 853 25.19 27.1 80.8 23 4.4 39.9 -64.27 -2.53
15:14 1024 30.24 853 25.19 27.2 81 28 7.4 45.4 -64.12 -2.524
15:15 1024 30.24 853 25.19 27.3 81.1 20 2.9 37.2 -64.03 -2.521
15:16 1024 30.24 853 25.19 27.2 81 22 3.9 39.1 -63.99 -2.519
15:17 1024 30.24 853 25.19 27.1 80.9 21 3 37.4 -63.96 -2.518
15:18 1024 30.24 853 25.19 27.1 80.8 26 6.3 43.4 -63.91 -2.516
15:19 1024 30.24 853 25.19 27.1 80.8 24 4.9 40.8 -63.78 -2.511
15:20 1024 30.24 853 25.19 27.1 80.9 22 4 39.2 -63.64 -2.506
15:21 1024 30.24 853 25.19 27.2 80.9 20 2.7 36.8 -63.49 -2.5
15:22 1024 30.24 853 25.19 27.2 80.9 26 6.2 43.2 -63.44 -2.498
15:23 1024 30.24 853 25.19 27.3 81.1 20 2.7 36.8 -63.34 -2.494
15:24 1024 30.24 853 25.19 27.3 81.1 24 5.3 41.6 -63.22 -2.489
15:25 1024 30.24 853 25.19 27.5 81.4 25 5.8 42.4 -63.13 -2.485
15:26 1024 30.24 853 25.19 27.6 81.6 21 3.9 39 -63.04 -2.482
15:27 1024 30.24 853 25.19 27.6 81.7 22 4.1 39.4 -63.03 -2.481
15:28 1024 30.24 853 25.19 27.5 81.6 19 2.2 35.9 -63.03 -2.481
15:29 1024 30.24 853 25.19 27.5 81.5 23 4.6 40.2 -62.99 -2.48
15:30 1024 30.24 853 25.19 27.6 81.6 26 6.7 44.1 -62.88 -2.476
15:31 1024 30.24 853 25.19 27.7 81.8 27 7.1 44.9 -62.84 -2.474
15:32 1024 30.24 853 25.19 27.6 81.7 23 4.6 40.4 -62.81 -2.473
15:33 1024 30.24 853 25.19 27.6 81.6 21 3.3 37.9 -62.74 -2.47
15:34 1024 30.24 853 25.19 27.6 81.8 25 6.3 43.3 -62.56 -2.463
15:35 1024 30.24 853 25.19 27.7 81.8 22 4.2 39.6 -62.39 -2.456
15:36 1024 30.24 853 25.19 27.6 81.8 26 6.8 44.2 -62.35 -2.455
15:37 1024 30.24 853 25.19 27.6 81.8 20 3 37.4 -62.35 -2.455
15:38 1024 30.24 853 25.19 27.5 81.6 21 3.9 39 -62.35 -2.455
15:39 1024 30.24 853 25.19 27.5 81.4 24 5.5 41.9 -62.35 -2.455
15:40 1024 30.24 853 25.19 27.5 81.5 26 6.4 43.5 -62.26 -2.451
15:41 1024 30.24 853 25.19 27.6 81.7 22 4 39.2 -62.13 -2.446
15:42 1024 30.24 853 25.19 27.6 81.7 22 4.3 39.7 -61.99 -2.441
15:43 1024 30.24 853 25.19 27.6 81.7 26 6.4 43.6 -61.89 -2.437
15:44 1024 30.24 853 25.19 27.6 81.7 23 4.8 40.6 -61.85 -2.435
15:45 1024 30.24 853 25.19 27.6 81.7 23 4.9 40.7 -61.81 -2.433
15:46 1024 30.24 853 25.19 27.6 81.6 24 5.3 41.5 -61.75 -2.431
15:47 1024 30.24 853 25.19 27.6 81.7 23 4.7 40.5 -61.71 -2.43
15:48 1024 30.24 853 25.19 27.6 81.7 22 4 39.2 -61.62 -2.426
15:49 1024 30.24 853 25.19 27.6 81.7 23 5.2 41.4 -61.53 -2.422
15:50 1024 30.24 853 25.19 27.7 81.8 24 5.5 42 -61.42 -2.418
15:51 1024 30.24 853 25.19 27.7 81.8 23 4.7 40.4 -61.33 -2.415
15:52 1024 30.24 853 25.19 27.7 81.8 27 7 44.6 -61.23 -2.411
15:53 1024 30.24 853 25.19 27.7 81.9 22 4.5 40.1 -61.15 -2.407
15:54 1024 30.24 853 25.19 27.7 81.9 20 2.8 37.1 -61.08 -2.405
15:55 1024 30.24 853 25.19 27.7 81.8 26 6.5 43.7 -61 -2.402
15:56 1024 30.24 853 25.19 27.7 81.8 23 4.8 40.7 -60.88 -2.397
15:57 1024 30.24 853 25.19 27.6 81.8 19 2.5 36.5 -60.76 -2.392
15:58 1024 30.24 853 25.19 27.6 81.6 20 3 37.4 -60.71 -2.39
15:59 1024 30.24 853 25.19 27.5 81.5 20 3.2 37.7 -60.62 -2.387
16:00 1024 30.24 853 25.19 27.5 81.5 20 3.2 37.7 -60.53 -2.383
16:01 1024 30.24 853 25.19 27.6 81.6 20 2.7 36.8 -60.47 -2.381
16:02 1024 30.24 853 25.19 27.7 81.8 25 6.1 43 -60.35 -2.376
16:03 1024 30.24 853 25.19 27.8 82.1 23 4.9 40.8 -60.23 -2.371
16:04 1024 30.24 853 25.19 27.9 82.2 21 3.9 39.1 -60.17 -2.369
16:05 1024 30.24 853 25.19 27.9 82.1 24 5.8 42.4 -60.15 -2.368
16:06 1024 30.24 853 25.19 27.9 82.1 21 4.1 39.3 -60.04 -2.364
16:07 1024 30.24 853 25.19 27.8 82.1 21 4 39.3 -59.94 -2.36
16:08 1024 30.24 853 25.19 27.9 82.2 23 5.3 41.5 -59.87 -2.357
16:09 1024 30.24 853 25.19 27.8 82.1 26 6.7 44 -59.82 -2.355
16:10 1024 30.24 853 25.19 27.8 82.1 19 2.2 35.9 -59.73 -2.352
16:11 1024 30.24 853 25.19 27.9 82.2 22 4.3 39.7 -59.63 -2.348
16:12 1024 30.24 853 25.19 28 82.4 26 7 44.5 -59.49 -2.342
16:13 1024 30.24 853 25.19 28 82.4 19 2.6 36.7 -59.44 -2.34
16:14 1024 30.24 853 25.19 27.9 82.2 27 7.4 45.3 -59.38 -2.338
16:15 1024 30.24 853 25.19 27.9 82.1 23 4.9 40.8 -59.31 -2.335
16:16 1024 30.24 853 25.19 27.9 82.3 22 4.2 39.6 -59.26 -2.333
16:17 1024 30.24 853 25.19 28 82.4 20 3.5 38.4 -59.17 -2.33
16:18 1024 30.24 853 25.19 28.1 82.5 24 5.6 42.2 -59.05 -2.325
16:19 1024 30.24 853 25.19 28.3 82.9 21 4 39.3 -58.94 -2.32
16:20 1024 30.24 853 25.19 28.3 82.9 23 5.7 42.3 -58.9 -2.319
16:21 1024 30.24 853 25.19 28.3 82.9 21 4.4 40 -58.82 -2.316
16:22 1024 30.24 853 25.19 28.3 82.9 25 6.8 44.3 -58.76 -2.313
16:23 1024 30.24 853 25.19 28.3 82.9 20 3.3 37.9 -58.7 -2.311
16:24 1024 30.24 853 25.19 28.2 82.8 19 2.6 36.7 -58.62 -2.308
16:25 1024 30.24 853 25.19 28.2 82.7 24 6.3 43.3 -58.54 -2.305
16:26 1024 30.24 853 25.19 28.2 82.8 20 3.3 37.9 -58.41 -2.3
16:27 1024 30.24 853 25.19 28.3 82.9 21 3.9 39 -58.34 -2.297
16:28 1024 30.24 853 25.19 28.2 82.8 21 4.2 39.5 -58.26 -2.294
16:29 1024 30.24 853 25.19 28.3 82.9 26 7.1 44.8 -58.14 -2.289
16:30 1024 30.24 853 25.19 28.3 82.9 20 3.7 38.7 -58.08 -2.287
16:31 1024 30.24 853 25.19 28.1 82.6 23 5.4 41.7 -58.02 -2.284
16:32 1024 30.24 853 25.19 28.1 82.5 21 4.1 39.3 -57.92 -2.28
16:33 1024 30.24 853 25.19 28.1 82.6 24 5.8 42.4 -57.84 -2.277
16:34 1024 30.24 853 25.19 28 82.5 19 2.8 37 -57.75 -2.274
16:35 1024 30.24 853 25.19 28 82.5 20 3.2 37.7 -57.67 -2.27
16:36 1024 30.24 853 25.19 28.1 82.5 20 3.5 38.3 -57.56 -2.266
16:37 1024 30.24 853 25.19 28.2 82.7 21 4.1 39.3 -57.46 -2.262
16:38 1024 30.24 853 25.19 28.3 82.9 21 4 39.2 -57.37 -2.259
16:39 1024 30.24 853 25.19 28.4 83 20 3.5 38.2 -57.32 -2.257
16:40 1023 30.21 853 25.19 28.3 82.9 26 7.4 45.3 -57.24 -2.254
16:41 1023 30.21 853 25.19 28.3 83 22 5 41 -57.13 -2.249
16:42 1023 30.21 853 25.19 28.4 83.1 26 7.1 44.8 -57.05 -2.246
16:43 1023 30.21 853 25.19 28.6 83.4 28 8.7 47.6 -56.95 -2.242
16:44 1023 30.21 853 25.19 28.7 83.6 21 4.6 40.2 -56.88 -2.239
16:45 1023 30.21 853 25.19 28.6 83.5 22 5.1 41.2 -56.88 -2.239
16:46 1023 30.21 853 25.19 28.5 83.2 23 5.5 41.9 -56.8 -2.236
16:47 1023 30.21 853 25.19 28.4 83.2 24 6.2 43.2 -56.73 -2.233
16:48 1023 30.21 853 25.19 28.3 82.9 24 6.2 43.2 -56.69 -2.232
16:49 1023 30.21 853 25.19 28.3 82.9 20 3.6 38.5 -56.62 -2.229
16:50 1023 30.21 853 25.19 28.4 83.1 19 2.7 36.9 -56.52 -2.225
16:51 1023 30.21 853 25.19 28.5 83.3 22 4.8 40.6 -56.41 -2.221
16:52 1023 30.21 853 25.19 28.6 83.6 27 8.1 46.5 -56.29 -2.216
16:53 1023 30.21 853 25.19 28.7 83.7 20 3.6 38.6 -56.24 -2.214
16:54 1023 30.21 853 25.19 28.7 83.7 24 6.5 43.7 -56.18 -2.212
16:55 1023 30.21 853 25.19 28.7 83.6 22 5.5 41.8 -56.18 -2.212
16:56 1023 30.21 853 25.19 28.5 83.4 21 4.2 39.6 -56.13 -2.21
16:57 1023 30.21 853 25.19 28.5 83.2 26 7.2 45 -56.06 -2.207
16:58 1023 30.21 853 25.19 28.5 83.3 24 6.1 43 -56 -2.205
16:59 1023 30.21 852 25.16 28.4 83 24 5.9 42.7 -55.94 -2.202
17:00 1023 30.21 853 25.19 28.3 82.9 19 3.1 37.6 -55.88 -2.2
17:01 1023 30.21 853 25.19 28.3 82.9 24 6.1 42.9 -55.76 -2.195
17:02 1023 30.21 853 25.19 28.4 83 18 2.4 36.4 -55.69 -2.193
17:03 1023 30.21 853 25.19 28.4 83.2 20 3.7 38.7 -55.66 -2.191
17:04 1023 30.21 852 25.16 28.4 83.2 18 2.3 36.1 -55.6 -2.189
17:05 1023 30.21 852 25.16 28.5 83.3 22 5.3 41.6 -55.53 -2.186
17:06 1023 30.21 852 25.16 28.5 83.3 20 3.7 38.7 -55.46 -2.183
17:07 1023 30.21 852 25.16 28.5 83.4 26 7.5 45.5 -55.39 -2.181
17:08 1023 30.21 852 25.16 28.5 83.3 19 3.2 37.8 -55.36 -2.18
17:09 1023 30.21 852 25.16 28.5 83.3 18 2.4 36.4 -55.31 -2.178
17:10 1023 30.21 852 25.16 28.4 83.1 19 2.5 36.5 -55.28 -2.176
17:11 1023 30.21 852 25.16 28.3 83 19 3.1 37.6 -55.25 -2.175
17:12 1023 30.21 852 25.16 28.3 83 24 6.2 43.2 -55.2 -2.173
17:13 1023 30.21 852 25.16 28.3 83 27 7.6 45.7 -55.15 -2.171
17:14 1023 30.21 852 25.16 28.3 83 21 4.2 39.6 -55.06 -2.168
17:15 1023 30.21 852 25.16 28.4 83 22 4.9 40.8 -55.05 -2.167
17:16 1023 30.21 852 25.16 28.3 83 20 3.8 38.9 -55 -2.165
17:17 1023 30.21 852 25.16 28.4 83 20 3.6 38.4 -55.09 -2.169
17:18 1023 30.21 852 25.16 28.4 83.1 19 3.1 37.5 -55.13 -2.17
17:19 1023 30.21 852 25.16 28.4 83.2 24 6.1 43 -55.09 -2.169
17:20 1023 30.21 852 25.16 28.5 83.3 24 6.4 43.5 -55.02 -2.166
17:21 1023 30.21 852 25.16 28.6 83.4 23 6 42.8 -54.96 -2.164
17:22 1023 30.21 852 25.16 28.6 83.5 22 5 41 -54.87 -2.16
17:23 1023 30.21 852 25.16 28.6 83.6 24 6.6 43.9 -54.84 -2.159
17:24 1023 30.21 852 25.16 28.7 83.6 18 2.5 36.6 -54.79 -2.157
17:25 1023 30.21 852 25.16 28.7 83.6 23 6 42.8 -54.77 -2.156
17:26 1023 30.21 852 25.16 28.7 83.6 25 7.1 44.8 -54.72 -2.154
17:27 1023 30.21 852 25.16 28.7 83.7 24 6.3 43.3 -54.67 -2.152
17:28 1023 30.21 852 25.16 28.7 83.7 21 4.7 40.5 -54.66 -2.152
17:29 1023 30.21 852 25.16 28.8 83.8 21 4.7 40.4 -54.66 -2.152
17:30 1023 30.21 852 25.16 28.7 83.7 27 8 46.4 -54.6 -2.15
17:31 1023 30.21 852 25.16 28.8 83.8 23 5.7 42.3 -54.6 -2.15
17:32 1023 30.21 852 25.16 28.7 83.7 23 5.7 42.2 -54.64 -2.151
17:33 1023 30.21 852 25.16 28.7 83.6 25 7.3 45.1 -54.62 -2.15
17:34 1023 30.21 852 25.16 28.7 83.6 22 5.3 41.5 -54.65 -2.152
17:35 1023 30.21 852 25.16 28.6 83.5 21 4.2 39.5 -54.73 -2.155
17:36 1023 30.21 852 25.16 28.6 83.4 23 6 42.7 -54.79 -2.157
17:37 1023 30.21 852 25.16 28.6 83.5 24 6.2 43.2 -54.82 -2.158
17:38 1023 30.21 852 25.16 28.6 83.5 23 6 42.7 -54.9 -2.161
17:39 1023 30.21 852 25.16 28.6 83.5 24 6.5 43.7 -54.97 -2.164
17:40 1023 30.21 852 25.16 28.7 83.6 24 6.3 43.4 -55.03 -2.167
17:41 1023 30.21 852 25.16 28.7 83.6 22 5.1 41.2 -55.1 -2.169
17:42 1023 30.21 852 25.16 28.7 83.6 23 5.9 42.6 -55.19 -2.173
17:43 1023 30.21 852 25.16 28.7 83.7 22 5.4 41.6 -55.24 -2.175
17:44 1023 30.21 852 25.16 28.7 83.7 24 6.6 43.8 -55.35 -2.179
17:45 1023 30.21 852 25.16 28.7 83.7 22 5.2 41.4 -55.42 -2.182
17:46 1023 30.21 852 25.16 28.7 83.7 23 5.9 42.6 -55.5 -2.185
17:47 1023 30.21 852 25.16 28.7 83.6 24 6.4 43.6 -55.59 -2.189
17:48 1023 30.21 852 25.16 28.7 83.6 26 7.7 45.8 -55.68 -2.192
17:49 1023 30.21 852 25.16 28.7 83.6 24 6.6 44 -55.73 -2.194
17:50 1023 30.21 852 25.16 28.7 83.6 26 7.7 45.9 -55.72 -2.194
17:51 1023 30.21 852 25.16 28.7 83.7 25 6.9 44.4 -55.6 -2.189
17:52 1023 30.21 852 25.16 28.7 83.7 24 6.7 44.1 -55.57 -2.188
17:53 1023 30.21 852 25.16 28.7 83.7 24 6.3 43.3 -55.57 -2.188
17:54 1023 30.21 852 25.16 28.7 83.6 24 6.7 44.1 -55.54 -2.187
17:55 1023 30.21 852 25.16 28.7 83.6 24 6.4 43.5 -55.53 -2.186
17:56 1023 30.21 852 25.16 28.8 83.8 25 7 44.7 -55.53 -2.186
17:57 1023 30.21 852 25.16 28.8 83.8 24 6.4 43.6 -55.5 -2.185
17:58 1023 30.21 852 25.16 28.8 83.8 25 7.1 44.7 -55.49 -2.185
17:59 1023 30.21 852 25.16 28.8 83.8 22 5.6 42 -55.46 -2.183
18:00 1023 30.21 852 25.16 28.8 83.8 25 7.2 45 -55.44 -2.183
18:01 1023 30.21 852 25.16 28.8 83.8 23 6.2 43.1 -55.47 -2.184
18:02 1023 30.21 852 25.16 28.7 83.7 23 6 42.9 -55.48 -2.184
18:03 1023 30.21 852 25.16 28.7 83.6 23 5.7 42.2 -55.4 -2.181
18:04 1023 30.21 852 25.16 28.6 83.5 26 7.4 45.4 -55.34 -2.179
18:05 1023 30.21 852 25.16 28.7 83.6 26 7.4 45.2 -55.27 -2.176
18:06 1023 30.21 852 25.16 28.7 83.7 22 5.5 41.9 -55.17 -2.172
18:07 1023 30.21 852 25.16 28.7 83.7 26 7.9 46.2 -55.09 -2.169
18:08 1023 30.21 852 25.16 28.7 83.7 22 5.5 42 -55.04 -2.167
18:09 1023 30.21 852 25.16 28.8 83.8 22 5.2 41.4 -54.99 -2.165
18:10 1023 30.21 852 25.16 28.8 83.8 23 5.9 42.7 -54.93 -2.163
18:11 1023 30.21 852 25.16 28.8 83.9 22 5.3 41.5 -54.9 -2.161
18:12 1023 30.21 852 25.16 28.8 83.8 27 8 46.4 -54.86 -2.16
18:13 1023 30.21 852 25.16 28.8 83.8 22 5.6 42 -54.84 -2.159
18:14 1023 30.21 852 25.16 28.8 83.8 24 6.8 44.2 -54.82 -2.158
18:15 1023 30.21 852 25.16 28.7 83.7 22 4.9 40.8 -54.79 -2.157
18:16 1023 30.21 852 25.16 28.8 83.8 22 5.4 41.7 -54.79 -2.157
18:17 1023 30.21 852 25.16 28.8 83.9 21 4.8 40.7 -54.79 -2.157
18:18 1023 30.21 852 25.16 28.9 83.9 24 6.3 43.4 -54.75 -2.156
18:19 1023 30.21 852 25.16 28.9 84.1 23 6.2 43.1 -54.73 -2.155
18:20 1023 30.21 852 25.16 28.9 84 23 5.9 42.6 -54.74 -2.155
18:21 1023 30.21 852 25.16 28.9 83.9 22 5.4 41.8 -54.77 -2.156
18:22 1023 30.21 852 25.16 28.8 83.9 19 2.9 37.2 -54.79 -2.157
18:23 1023 30.21 852 25.16 28.8 83.9 22 5.6 42 -54.8 -2.157
18:24 1023 30.21 852 25.16 28.8 83.9 26 7.7 45.9 -54.79 -2.157
18:25 1023 30.21 852 25.16 28.8 83.8 21 4.8 40.7 -54.79 -2.157
18:26 1023 30.21 852 25.16 28.8 83.8 23 6 42.9 -54.79 -2.157
18:27 1023 30.21 852 25.16 28.7 83.6 21 4.7 40.4 -54.81 -2.158
18:28 1023 30.21 852 25.16 28.7 83.6 21 4.8 40.6 -54.85 -2.159
18:29 1023 30.21 852 25.16 28.7 83.6 23 5.6 42.1 -54.86 -2.16
18:30 1023 30.21 852 25.16 28.6 83.5 23 5.9 42.5 -54.86 -2.16
18:31 1023 30.21 852 25.16 28.5 83.3 24 6.3 43.4 -54.86 -2.16
18:32 1023 30.21 852 25.16 28.4 83.2 24 6.4 43.6 -54.86 -2.16
18:33 1023 30.21 852 25.16 28.4 83.2 24 6.5 43.6 -54.86 -2.16
18:34 1023 30.21 852 25.16 28.5 83.3 30 9.4 49 -54.86 -2.16
18:35 1023 30.21 852 25.16 28.5 83.4 20 3.8 38.9 -54.9 -2.161
18:36 1023 30.21 852 25.16 28.6 83.4 21 4.6 40.3 -54.95 -2.163
18:37 1023 30.21 852 25.16 28.6 83.4 25 6.7 44.1 -54.96 -2.164
18:38 1023 30.21 852 25.16 28.6 83.4 24 6.5 43.8 -54.96 -2.164
18:39 1023 30.21 852 25.16 28.6 83.6 22 5 40.9 -55 -2.165
18:40 1023 30.21 852 25.16 28.7 83.7 23 5.9 42.6 -55.04 -2.167
18:41 1023 30.21 852 25.16 28.7 83.7 25 7.2 44.9 -55.06 -2.168
18:42 1023 30.21 852 25.16 28.7 83.6 25 6.9 44.4 -55.1 -2.169
18:43 1023 30.21 852 25.16 28.6 83.4 26 7.2 45 -55.12 -2.17
18:44 1023 30.21 852 25.16 28.6 83.4 23 5.5 42 -55.12 -2.17
18:45 1023 30.21 852 25.16 28.6 83.5 26 7.3 45.1 -55.13 -2.17
18:46 1023 30.21 852 25.16 28.7 83.6 22 5.3 41.5 -55.15 -2.171
18:47 1023 30.21 852 25.16 28.7 83.6 20 3.6 38.4 -55.22 -2.174
18:48 1023 30.21 852 25.16 28.8 83.8 18 2.5 36.5 -55.25 -2.175
18:49 1023 30.21 852 25.16 28.8 83.8 21 4.6 40.3 -55.29 -2.177
18:50 1023 30.21 852 25.16 28.8 83.9 24 6.8 44.3 -55.31 -2.178
18:51 1023 30.21 852 25.16 28.8 83.9 24 6.5 43.8 -55.32 -2.178
18:52 1023 30.21 852 25.16 28.7 83.7 19 3.2 37.8 -55.37 -2.18
18:53 1023 30.21 852 25.16 28.7 83.7 19 3.4 38.1 -55.42 -2.182
18:54 1023 30.21 852 25.16 28.8 83.9 20 4.3 39.8 -55.45 -2.183
18:55 1023 30.21 852 25.16 28.9 84.1 25 7.2 44.9 -55.49 -2.185
18:56 1023 30.21 852 25.16 28.9 84.1 23 5.8 42.5 -55.51 -2.185
18:57 1023 30.21 852 25.16 28.9 84.1 27 8.4 47.1 -55.54 -2.187
18:58 1023 30.21 852 25.16 28.9 84 21 5 40.9 -55.58 -2.188
18:59 1023 30.21 852 25.16 28.9 83.9 24 6.7 44.1 -55.62 -2.19
19:00 1023 30.21 852 25.16 28.8 83.8 27 8.2 46.7 -55.64 -2.191
19:01 1023 30.21 852 25.16 28.7 83.7 25 7.3 45.2 -55.66 -2.191
19:02 1023 30.21 852 25.16 28.7 83.7 22 5.4 41.8 -55.71 -2.193
19:03 1023 30.21 852 25.16 28.7 83.6 25 7.2 44.9 -55.77 -2.196
19:04 1023 30.21 852 25.16 28.6 83.4 23 5.9 42.7 -55.8 -2.197
19:05 1023 30.21 852 25.16 28.6 83.4 24 6.1 43 -55.85 -2.199
19:06 1023 30.21 852 25.16 28.5 83.3 29 9 48.1 -55.88 -2.2
19:07 1023 30.21 852 25.16 28.5 83.3 28 8.8 47.8 -55.9 -2.201
19:08 1023 30.21 852 25.16 28.4 83.1 24 6.4 43.6 -55.97 -2.204
19:09 1023 30.21 852 25.16 28.3 83 28 8.2 46.8 -56.03 -2.206
19:10 1023 30.21 852 25.16 28.3 82.9 26 7.1 44.7 -56.11 -2.209
19:11 1023 30.21 852 25.16 28.2 82.8 23 5.1 41.2 -56.14 -2.21
19:12 1023 30.21 852 25.16 28.2 82.8 26 7.1 44.8 -56.2 -2.213
19:13 1023 30.21 852 25.16 28.3 82.9 23 5.4 41.7 -56.24 -2.214
19:14 1023 30.21 852 25.16 28.3 83 23 5.6 42 -56.3 -2.217
19:15 1023 30.21 852 25.16 28.3 82.9 22 5.2 41.3 -56.37 -2.219
19:16 1023 30.21 852 25.16 28.3 82.9 22 5 40.9 -56.44 -2.222
19:17 1023 30.21 852 25.16 28.2 82.7 21 4.2 39.5 -56.5 -2.224
19:18 1023 30.21 852 25.16 28.1 82.6 24 6.1 42.9 -56.57 -2.227
19:19 1023 30.21 852 25.16 28 82.5 24 5.8 42.5 -56.63 -2.23
19:20 1023 30.21 852 25.16 28 82.4 24 5.9 42.6 -56.69 -2.232
19:21 1023 30.21 852 25.16 28 82.4 23 5.2 41.3 -56.73 -2.233
19:22 1023 30.21 852 25.16 28 82.4 24 6 42.9 -56.8 -2.236
19:23 1023 30.21 852 25.16 28 82.3 24 5.9 42.6 -56.86 -2.239
19:24 1023 30.21 852 25.16 27.9 82.3 23 5.3 41.6 -56.93 -2.241
19:25 1023 30.21 852 25.16 28 82.3 23 5.3 41.6 -56.99 -2.244
19:26 1023 30.21 852 25.16 27.9 82.3 22 4.3 39.7 -57.06 -2.246
19:27 1023 30.21 852 25.16 28 82.4 23 5.2 41.3 -57.15 -2.25
19:28 1023 30.21 852 25.16 27.9 82.2 21 3.8 38.9 -57.21 -2.252
19:29 1023 30.21 852 25.16 27.9 82.2 22 4.4 40 -57.29 -2.256
19:30 1023 30.21 852 25.16 28 82.3 23 5.1 41.1 -57.35 -2.258
19:31 1023 30.21 852 25.16 28.1 82.5 24 5.7 42.3 -57.43 -2.261
19:32 1023 30.21 852 25.16 28 82.4 27 7.5 45.4 -57.47 -2.263
19:33 1023 30.21 852 25.16 27.9 82.2 25 6.5 43.8 -57.51 -2.264
19:34 1023 30.21 852 25.16 27.8 82.1 25 6.1 43 -57.58 -2.267
19:35 1023 30.21 852 25.16 27.7 81.9 24 5.5 41.8 -57.63 -2.269
19:36 1023 30.21 852 25.16 27.7 81.8 24 5.4 41.7 -57.7 -2.272
19:37 1023 30.21 852 25.16 27.7 81.8 26 6.7 44.1 -57.77 -2.274
19:38 1023 30.21 852 25.16 27.7 81.8 25 6 42.7 -57.83 -2.277
19:39 1023 30.21 852 25.16 27.7 81.9 25 6.2 43.1 -57.91 -2.28
19:40 1023 30.21 852 25.16 27.7 81.9 24 5.6 42 -58.01 -2.284
19:41 1023 30.21 852 25.16 27.8 82.1 23 5.2 41.3 -58.11 -2.288
19:42 1023 30.21 852 25.16 27.9 82.2 23 4.9 40.8 -58.21 -2.292
19:43 1023 30.21 852 25.16 28 82.3 24 5.9 42.7 -58.3 -2.295
19:44 1023 30.21 852 25.16 28 82.4 24 6.1 43 -58.38 -2.298
19:45 1023 30.21 852 25.16 28 82.3 24 6 42.8 -58.47 -2.302
19:46 1023 30.21 852 25.16 28 82.3 25 6.2 43.1 -58.53 -2.304
19:47 1023 30.21 852 25.16 27.9 82.3 24 6 42.8 -58.61 -2.307
19:48 1023 30.21 852 25.16 27.9 82.3 25 6.3 43.3 -58.7 -2.311
19:49 1023 30.21 852 25.16 27.9 82.2 23 5.2 41.3 -58.77 -2.314
19:50 1023 30.21 852 25.16 27.9 82.2 24 5.9 42.6 -58.84 -2.317
19:51 1023 30.21 852 25.16 27.9 82.1 23 5.2 41.4 -58.93 -2.32
19:52 1023 30.21 852 25.16 27.8 82 24 5.6 42 -58.99 -2.322
19:53 1023 30.21 852 25.16 27.7 81.9 24 5.5 42 -59.08 -2.326
19:54 1023 30.21 852 25.16 27.7 81.8 25 6.1 43 -59.15 -2.329
19:55 1023 30.21 852 25.16 27.6 81.6 25 6.3 43.3 -59.26 -2.333
19:56 1023 30.21 852 25.16 27.5 81.5 26 6.7 44 -59.34 -2.336
19:57 1023 30.21 852 25.16 27.4 81.4 24 5.4 41.7 -59.43 -2.34
19:58 1023 30.21 852 25.16 27.4 81.4 24 5.5 42 -59.51 -2.343
19:59 1023 30.21 852 25.16 27.4 81.4 24 5.6 42.1 -59.62 -2.347
20:00 1023 30.21 852 25.16 27.4 81.4 26 6.4 43.4 -59.7 -2.35
20:01 1023 30.21 852 25.16 27.5 81.4 24 5.4 41.8 -59.76 -2.353
20:02 1023 30.21 852 25.16 27.5 81.5 27 7 44.5 -59.84 -2.356
20:03 1023 30.21 852 25.16 27.5 81.5 25 6 42.8 -59.93 -2.359
20:04 1023 30.21 852 25.16 27.5 81.6 27 7.1 44.9 -60.01 -2.363
20:05 1023 30.21 852 25.16 27.5 81.5 25 6.1 42.9 -60.1 -2.366
20:06 1023 30.21 852 25.16 27.5 81.5 25 6 42.8 -60.18 -2.369
20:07 1023 30.21 852 25.16 27.5 81.5 25 5.8 42.4 -60.27 -2.373
20:08 1023 30.21 852 25.16 27.5 81.5 27 6.9 44.4 -60.37 -2.377
20:09 1023 30.21 852 25.16 27.4 81.3 30 8.6 47.4 -60.46 -2.38
20:10 1023 30.21 852 25.16 27.2 80.9 28 7.2 44.9 -60.55 -2.384
20:11 1023 30.21 852 25.16 27.1 80.7 27 6.6 43.8 -60.65 -2.388
20:12 1023 30.21 852 25.16 27.1 80.7 25 5.7 42.2 -60.75 -2.392
20:13 1022 30.18 852 25.16 27.1 80.9 24 5.2 41.3 -60.85 -2.396
20:14 1022 30.18 852 25.16 27.2 81 24 5 40.9 -60.95 -2.4
20:15 1022 30.18 852 25.16 27.3 81.2 23 5 40.9 -61.04 -2.403
20:16 1022 30.18 852 25.16 27.4 81.4 23 5 41.1 -61.15 -2.407
20:17 1022 30.18 852 25.16 27.5 81.6 23 5.1 41.2 -61.25 -2.411
20:18 1022 30.18 852 25.16 27.7 81.8 24 5.6 42 -61.37 -2.416
20:19 1022 30.18 852 25.16 27.4 81.4 26 6.7 44.1 -61.49 -2.421
20:20 1022 30.18 852 25.16 27.2 81 26 6.5 43.7 -61.56 -2.424
20:21 1022 30.18 852 25.16 27.1 80.7 26 6.1 43 -61.67 -2.428
20:22 1022 30.18 852 25.16 26.9 80.4 25 5.7 42.3 -61.77 -2.432
20:23 1022 30.18 852 25.16 26.8 80.2 26 6.1 42.9 -61.89 -2.437
20:24 1022 30.18 852 25.16 26.7 80 26 6.1 42.9 -62 -2.441
20:25 1022 30.18 852 25.16 26.6 79.8 27 6.1 43 -62.11 -2.445
20:26 1022 30.18 852 25.16 26.5 79.7 27 6.3 43.4 -62.23 -2.45
20:27 1022 30.18 852 25.16 26.4 79.5 27 6 42.7 -62.34 -2.454
20:28 1022 30.18 852 25.16 26.3 79.4 26 5.7 42.3 -62.46 -2.459
20:29 1022 30.18 852 25.16 26.2 79.2 29 7.3 45.1 -62.59 -2.464
20:30 1022 30.18 852 25.16 26 78.8 34 9.1 48.4 -62.69 -2.468
20:31 1022 30.18 852 25.16 25.6 78 31 7.3 45.2 -62.8 -2.472
20:32 1022 30.18 852 25.16 25.4 77.6 33 8 46.4 -62.92 -2.477
20:33 1022 30.18 852 25.16 24.9 76.9 45 12.5 54.5 -63.04 -2.482
20:34 1022 30.18 852 25.16 24.1 75.4 48 12.6 54.6 -63.15 -2.486
20:35 1022 30.18 852 25.16 23.3 73.9 47 11.6 52.9 -63.26 -2.491
20:36 1022 30.18 852 25.16 22.7 72.9 51 12.2 54 -63.38 -2.495
20:37 1022 30.18 852 25.16 22.3 72.1 53 12.3 54.2 -63.51 -2.5
20:38 1022 30.18 852 25.16 21.9 71.4 55 12.6 54.6 -63.67 -2.507
20:39 1022 30.18 852 25.16 21.6 70.8 57 13 55.3 -63.81 -2.512
20:40 1022 30.18 852 25.16 21.3 70.4 59 13.2 55.8 -63.98 -2.519
20:41 1022 30.18 852 25.16 21 69.9 62 13.6 56.4 -64.15 -2.526
20:42 1022 30.18 852 25.16 20.7 69.3 64 13.7 56.6 -64.32 -2.532
20:43 1022 30.18 852 25.16 20.5 68.8 64 13.6 56.5 -64.49 -2.539
20:44 1022 30.18 852 25.16 20.3 68.5 65 13.6 56.6 -64.68 -2.546
20:45 1022 30.18 852 25.16 20 68 66 13.5 56.2 -64.88 -2.554
20:46 1022 30.18 852 25.16 19.9 67.8 65 13.1 55.7 -65.08 -2.562
20:47 1022 30.18 852 25.16 19.9 67.8 63 12.7 54.9 -65.31 -2.571
20:48 1022 30.18 852 25.16 19.9 67.8 63 12.6 54.7 -65.53 -2.58
20:49 1022 30.18 852 25.16 19.9 67.8 63 12.6 54.8 -65.77 -2.589
20:50 1022 30.18 852 25.16 19.8 67.6 62 12.5 54.5 -66.02 -2.599
20:51 1022 30.18 852 25.16 19.7 67.5 62 12.3 54.1 -66.27 -2.609
20:52 1022 30.18 852 25.16 19.6 67.3 62 12.2 53.9 -66.52 -2.619
20:53 1022 30.18 852 25.16 19.5 67.1 62 12.1 53.7 -66.78 -2.629
20:54 1022 30.18 852 25.16 19.4 66.9 61 11.8 53.2 -67.03 -2.639
20:55 1022 30.18 852 25.16 19.3 66.8 61 11.8 53.2 -67.27 -2.648
20:56 1022 30.18 852 25.16 19.2 66.5 62 11.8 53.3 -67.52 -2.658
20:57 1022 30.18 852 25.16 19 66.2 61 11.3 52.4 -67.78 -2.669
20:58 1022 30.18 852 25.16 18.9 66 61 11.3 52.4 -68.02 -2.678
20:59 1022 30.18 852 25.16 18.8 65.8 62 11.4 52.5 -68.27 -2.688
21:00 1022 30.18 852 25.16 18.6 65.4 62 11.3 52.3 -68.51 -2.697
21:01 1022 30.18 852 25.16 18.4 65.2 63 11.3 52.3 -68.76 -2.707
21:02 1022 30.18 852 25.16 18.3 64.9 63 11.3 52.3 -69 -2.717
21:03 1022 30.18 852 25.16 18.2 64.7 63 11.2 52.2 -69.23 -2.726
21:04 1022 30.18 852 25.16 18 64.4 64 11.2 52.1 -69.47 -2.735
21:05 1022 30.18 852 25.16 17.8 64.1 64 11 51.8 -69.72 -2.745
21:06 1022 30.18 852 25.16 17.7 63.9 64 11 51.8 -69.95 -2.754
21:07 1022 30.18 852 25.16 17.6 63.7 65 10.9 51.7 -70.2 -2.764
21:08 1022 30.18 852 25.16 17.5 63.5 64 10.8 51.4 -70.4 -2.772
21:09 1022 30.18 852 25.16 17.4 63.4 64 10.7 51.2 -70.7 -2.783
21:10 1022 30.18 852 25.16 17.3 63.2 63 10.4 50.7 -70.9 -2.791
21:11 1022 30.18 852 25.16 17.3 63.2 63 10.4 50.7 -71.1 -2.799
21:12 1022 30.18 852 25.16 17.3 63.2 63 10.3 50.6 -71.4 -2.811
21:13 1022 30.18 852 25.16 17.3 63.1 63 10.2 50.4 -71.6 -2.819
21:14 1022 30.18 852 25.16 17.4 63.3 63 10.3 50.5 -71.8 -2.827
21:15 1022 30.18 852 25.16 17.4 63.2 62 10.2 50.4 -72.1 -2.839
21:16 1022 30.18 852 25.16 17.3 63.1 62 10.1 50.2 -72.3 -2.846
21:17 1022 30.18 852 25.16 17.2 63 62 9.9 49.9 -72.5 -2.854
21:18 1022 30.18 852 25.16 17.2 62.9 62 9.9 49.8 -72.7 -2.862
21:19 1023 30.21 852 25.16 17.1 62.9 61 9.6 49.3 -73 -2.874
21:20 1022 30.18 852 25.16 17.2 62.9 60 9.5 49.1 -73.2 -2.882
21:21 1023 30.21 852 25.16 17.3 63.1 60 9.6 49.3 -73.4 -2.89
21:22 1023 30.21 852 25.16 17.3 63.1 60 9.6 49.3 -73.6 -2.898
21:23 1023 30.21 852 25.16 17.2 63 60 9.6 49.2 -73.8 -2.906
21:24 1023 30.21 852 25.16 17.2 63 60 9.5 49.1 -74 -2.913
21:25 1023 30.21 852 25.16 17.2 62.9 60 9.3 48.8 -74.2 -2.921
21:26 1023 30.21 852 25.16 17.1 62.8 60 9.5 49 -74.3 -2.925
21:27 1023 30.21 852 25.16 17 62.7 61 9.6 49.3 -74.5 -2.933
21:28 1023 30.21 852 25.16 17 62.5 61 9.6 49.2 -74.7 -2.941
21:29 1023 30.21 852 25.16 16.9 62.4 61 9.4 48.9 -74.9 -2.949
21:30 1023 30.21 852 25.16 16.8 62.3 61 9.3 48.7 -75 -2.953
21:31 1023 30.21 852 25.16 16.8 62.2 61 9.2 48.6 -75.2 -2.961
21:32 1023 30.21 852 25.16 16.8 62.3 61 9.3 48.7 -75.4 -2.969
21:33 1023 30.21 852 25.16 16.8 62.3 60 9.2 48.5 -75.5 -2.972
21:34 1023 30.21 852 25.16 16.9 62.4 60 9.1 48.3 -75.7 -2.98
21:35 1023 30.21 852 25.16 17 62.5 60 9.1 48.5 -75.8 -2.984
21:36 1023 30.21 852 25.16 16.9 62.5 59 9 48.3 -76 -2.992
21:37 1023 30.21 852 25.16 17 62.5 59 9.1 48.3 -76.1 -2.996
21:38 1023 30.21 852 25.16 17 62.6 59 9 48.2 -76.3 -3.004
21:39 1023 30.21 852 25.16 17 62.5 59 9 48.1 -76.4 -3.008
21:40 1023 30.21 852 25.16 16.8 62.2 60 9.1 48.3 -76.5 -3.012
21:41 1023 30.21 852 25.16 16.6 61.9 60 8.9 48 -76.7 -3.02
21:42 1023 30.21 852 25.16 16.7 62 60 8.9 48 -76.8 -3.024
21:43 1023 30.21 852 25.16 16.8 62.3 58 8.7 47.6 -76.9 -3.028
21:44 1023 30.21 852 25.16 16.9 62.3 59 8.8 47.9 -77 -3.031
21:45 1023 30.21 852 25.16 16.9 62.3 58 8.8 47.8 -77.2 -3.039
21:46 1023 30.21 852 25.16 16.9 62.4 58 8.7 47.6 -77.3 -3.043
21:47 1023 30.21 852 25.16 16.8 62.3 58 8.7 47.6 -77.4 -3.047
21:48 1023 30.21 852 25.16 16.9 62.3 58 8.6 47.5 -77.5 -3.051
21:49 1023 30.21 852 25.16 16.9 62.5 57 8.3 47 -77.6 -3.055
21:50 1023 30.21 852 25.16 17.1 62.7 56 8.3 46.9 -77.7 -3.059
21:51 1023 30.21 852 25.16 17.2 62.9 55 8.2 46.8 -77.8 -3.063
21:52 1023 30.21 852 25.16 17.5 63.4 55 8.3 47 -78 -3.071
21:53 1023 30.21 852 25.16 17.6 63.7 55 8.5 47.3 -78.1 -3.075
21:54 1023 30.21 852 25.16 17.8 64 54 8.5 47.2 -78.2 -3.079
21:55 1023 30.21 852 25.16 17.9 64.2 53 8.2 46.8 -78.2 -3.079
21:56 1023 30.21 852 25.16 18 64.3 53 8.3 46.9 -78.3 -3.083
21:57 1023 30.21 852 25.16 18.1 64.6 53 8.6 47.5 -78.4 -3.087
21:58 1023 30.21 852 25.16 18 64.4 55 8.9 48 -78.5 -3.091
21:59 1023 30.21 852 25.16 17.7 63.8 56 8.8 47.8 -78.6 -3.094
22:00 1023 30.21 852 25.16 17.4 63.3 57 9 48.1 -78.7 -3.098
22:01 1023 30.21 852 25.16 17.2 62.9 57 8.7 47.6 -78.7 -3.098
22:02 1023 30.21 852 25.16 17.1 62.8 56 8.3 46.9 -78.8 -3.102
22:03 1023 30.21 852 25.16 17.2 63 54 8.1 46.5 -78.9 -3.106
22:04 1023 30.21 852 25.16 17.4 63.3 53 7.9 46.2 -79 -3.11
22:05 1023 30.21 852 25.16 17.5 63.5 53 7.9 46.2 -79 -3.11
22:06 1023 30.21 852 25.16 17.6 63.6 52 7.7 45.9 -79.1 -3.114
22:07 1023 30.21 852 25.16 17.7 63.8 52 7.7 45.8 -79.2 -3.118
22:08 1023 30.21 852 25.16 17.7 63.8 51 7.6 45.7 -79.2 -3.118
22:09 1023 30.21 852 25.16 17.7 63.8 50 7.2 45 -79.3 -3.122
22:10 1023 30.21 852 25.16 17.8 64 50 7.4 45.2 -79.4 -3.126
22:11 1023 30.21 852 25.16 17.9 64.2 48 6.9 44.5 -79.4 -3.126
22:12 1023 30.21 852 25.16 18.1 64.5 47 6.8 44.2 -79.5 -3.13
22:13 1023 30.21 852 25.16 18.2 64.8 48 7.3 45.1 -79.5 -3.13
22:14 1023 30.21 852 25.16 18.2 64.7 48 7.1 44.7 -79.6 -3.134
22:15 1023 30.21 852 25.16 18.2 64.7 46 6.6 43.9 -79.7 -3.138
22:16 1023 30.21 852 25.16 18.4 65 45 6.5 43.7 -79.7 -3.138
22:17 1023 30.21 852 25.16 18.6 65.5 44 6.2 43.2 -79.8 -3.142
22:18 1023 30.21 852 25.16 18.8 65.9 43 6.3 43.3 -79.8 -3.142
22:19 1023 30.21 852 25.16 19 66.2 44 6.5 43.6 -79.9 -3.146
22:20 1023 30.21 852 25.16 19 66.2 44 6.5 43.6 -79.9 -3.146
22:21 1023 30.21 852 25.16 19 66.1 44 6.5 43.6 -80 -3.15
22:22 1023 30.21 852 25.16 18.9 66.1 43 6.3 43.3 -80 -3.15
22:23 1023 30.21 852 25.16 19.1 66.3 42 6 42.8 -80 -3.15
22:24 1023 30.21 852 25.16 19.2 66.6 41 6 42.7 -80.1 -3.154
22:25 1023 30.21 852 25.16 19.4 66.8 40 5.7 42.3 -80.1 -3.154
22:26 1023 30.21 852 25.16 19.5 67.2 41 6.1 42.9 -80.1 -3.154
22:27 1023 30.21 852 25.16 19.6 67.3 40 5.8 42.5 -80.2 -3.157
22:28 1023 30.21 852 25.16 19.6 67.3 39 5.4 41.7 -80.2 -3.157
22:29 1023 30.21 852 25.16 19.8 67.6 40 5.8 42.5 -80.3 -3.161
22:30 1023 30.21 852 25.16 19.9 67.7 39 5.5 41.9 -80.3 -3.161
22:31 1023 30.21 852 25.16 19.9 67.9 38 5.5 41.9 -80.3 -3.161
22:32 1023 30.21 852 25.16 19.9 67.8 39 5.8 42.5 -80.3 -3.161
22:33 1023 30.21 852 25.16 19.7 67.5 41 6.3 43.3 -80.4 -3.165
22:34 1023 30.21 852 25.16 19.5 67.1 42 6.5 43.7 -80.4 -3.165
22:35 1023 30.21 852 25.16 19.1 66.4 44 6.7 44 -80.4 -3.165
22:36 1023 30.21 852 25.16 18.8 65.9 45 6.9 44.4 -80.4 -3.165
22:37 1023 30.21 852 25.16 18.5 65.3 47 7 44.6 -80.4 -3.165
22:38 1023 30.21 852 25.16 18.2 64.8 46 6.6 43.9 -80.4 -3.165
22:39 1023 30.21 852 25.16 18.1 64.6 47 6.8 44.3 -80.4 -3.165
22:40 1023 30.21 852 25.16 17.9 64.2 52 7.9 46.2 -80.4 -3.165
22:41 1023 30.21 852 25.16 17.3 63.2 55 8.4 47.1 -80.4 -3.165
22:42 1023 30.21 852 25.16 16.6 62 57 8.2 46.7 -80.4 -3.165
22:43 1023 30.21 852 25.16 16.2 61.2 56 7.6 45.6 -80.4 -3.165
22:44 1023 30.21 852 25.16 16.2 61.2 53 6.6 43.9 -80.5 -3.169
22:45 1023 30.21 852 25.16 16.7 62.1 50 6.2 43.2 -80.5 -3.169
22:46 1023 30.21 852 25.16 17.2 62.9 50 6.8 44.3 -80.6 -3.173
22:47 1023 30.21 852 25.16 17.3 63.1 51 7 44.6 -80.6 -3.173
22:48 1023 30.21 852 25.16 17.3 63.1 50 6.8 44.3 -80.6 -3.173
22:49 1023 30.21 852 25.16 17.2 63 49 6.6 43.9 -80.7 -3.177
22:50 1023 30.21 852 25.16 17.3 63.1 49 6.7 44 -80.7 -3.177
22:51 1023 30.21 852 25.16 17.3 63.2 51 7.1 44.9 -80.8 -3.181
22:52 1023 30.21 852 25.16 17.1 62.8 53 7.5 45.6 -80.8 -3.181
22:53 1023 30.21 852 25.16 16.8 62.3 54 7.6 45.6 -80.8 -3.181
22:54 1023 30.21 852 25.16 16.6 61.8 55 7.6 45.7 -80.9 -3.185
22:55 1023 30.21 852 25.16 16.4 61.5 54 7.2 44.9 -80.9 -3.185
22:56 1023 30.21 852 25.16 16.4 61.5 55 7.5 45.4 -81 -3.189
22:57 1023 30.21 852 25.16 16.1 61 57 7.8 46 -81 -3.189
22:58 1023 30.21 852 25.16 15.9 60.5 58 7.8 46 -81.1 -3.193
22:59 1023 30.21 852 25.16 15.6 60.1 59 7.8 46 -81.1 -3.193
23:00 1023 30.21 852 25.16 15.4 59.7 59 7.6 45.7 -81.1 -3.193
23:01 1023 30.21 852 25.16 15.3 59.5 60 7.6 45.6 -81.2 -3.197
23:02 1023 30.21 852 25.16 15.4 59.6 56 6.6 43.9 -81.2 -3.197
23:03 1023 30.21 852 25.16 15.8 60.4 55 6.8 44.2 -81.3 -3.201
23:04 1023 30.21 852 25.16 16 60.7 56 7.3 45.2 -81.3 -3.201
23:05 1023 30.21 852 25.16 15.8 60.4 57 7.3 45.2 -81.4 -3.205
23:06 1023 30.21 852 25.16 15.6 60 58 7.5 45.5 -81.5 -3.209
23:07 1023 30.21 852 25.16 15.4 59.7 59 7.5 45.5 -81.5 -3.209
23:08 1023 30.21 852 25.16 15.3 59.6 59 7.6 45.6 -81.6 -3.213
23:09 1023 30.21 852 25.16 15.3 59.5 59 7.4 45.3 -81.6 -3.213
23:10 1023 30.21 852 25.16 15.2 59.3 60 7.6 45.6 -81.7 -3.217
23:11 1023 30.21 852 25.16 15 59 61 7.6 45.7 -81.7 -3.217
23:12 1023 30.21 852 25.16 14.7 58.4 63 7.8 46 -81.8 -3.22
23:13 1023 30.21 852 25.16 14.3 57.7 65 7.8 46.1 -81.8 -3.22
23:14 1023 30.21 852 25.16 14 57.2 66 7.8 46.1 -81.9 -3.224
23:15 1023 30.21 852 25.16 13.8 56.8 67 7.8 46.1 -81.9 -3.224
23:16 1023 30.21 852 25.16 13.6 56.4 69 8 46.4 -82 -3.228
23:17 1023 30.21 852 25.16 13.3 56 70 8 46.5 -82 -3.228
23:18 1023 30.21 852 25.16 13.2 55.7 70 8 46.4 -82.1 -3.232
23:19 1023 30.21 852 25.16 13.1 55.7 70 7.8 46.1 -82.1 -3.232
23:20 1023 30.21 852 25.16 13.6 56.4 65 7.3 45.1 -82.2 -3.236
23:21 1023 30.21 852 25.16 14.1 57.4 65 7.7 45.8 -82.2 -3.236
23:22 1023 30.21 852 25.16 14.4 57.9 61 7 44.6 -82.3 -3.24
23:23 1023 30.21 852 25.16 15.3 59.5 57 6.8 44.3 -82.4 -3.244
23:24 1023 30.21 852 25.16 16 60.8 50 5.7 42.2 -82.4 -3.244
23:25 1023 30.21 852 25.16 17 62.6 45 4.9 40.9 -82.5 -3.248
23:26 1023 30.21 852 25.16 18.1 64.6 41 4.9 40.8 -82.6 -3.252
23:27 1023 30.21 852 25.16 18.6 65.5 42 5.6 42.1 -82.6 -3.252
23:28 1023 30.21 852 25.16 18.8 65.8 44 6.4 43.5 -82.7 -3.256
23:29 1023 30.21 852 25.16 18.5 65.2 45 6.5 43.7 -82.8 -3.26
23:30 1023 30.21 852 25.16 18.1 64.6 44 5.8 42.5 -82.8 -3.26
23:31 1023 30.21 852 25.16 18.2 64.7 46 6.5 43.7 -82.9 -3.264
23:32 1023 30.21 852 25.16 17.8 64 52 7.8 46.1 -82.9 -3.264
23:33 1023 30.21 852 25.16 16.8 62.2 55 7.7 45.9 -83 -3.268
23:34 1023 30.21 852 25.16 15.9 60.7 58 7.7 45.8 -83 -3.268
23:35 1023 30.21 852 25.16 15.3 59.6 60 7.8 46.1 -83 -3.268
23:36 1023 30.21 852 25.16 14.9 58.9 61 7.6 45.6 -83 -3.268
23:37 1023 30.21 852 25.16 14.7 58.5 62 7.7 45.8 -83.1 -3.272
23:38 1023 30.21 852 25.16 14.5 58.1 64 7.8 46.1 -83.1 -3.272
23:39 1023 30.21 852 25.16 14.3 57.8 64 7.6 45.7 -83.1 -3.272
23:40 1023 30.21 852 25.16 14.3 57.8 63 7.5 45.5 -83.2 -3.276
23:41 1023 30.21 852 25.16 14.4 57.9 62 7.4 45.3 -83.2 -3.276
23:42 1023 30.21 852 25.16 14.4 58 63 7.6 45.8 -83.3 -3.28
23:43 1023 30.21 852 25.16 14.3 57.7 64 7.7 45.8 -83.3 -3.28
23:44 1023 30.21 852 25.16 14.2 57.5 65 7.7 45.8 -83.3 -3.28
23:45 1023 30.21 852 25.16 14.1 57.4 66 7.9 46.2 -83.4 -3.283
23:46 1023 30.21 852 25.16 13.9 57 68 8 46.5 -83.4 -3.283
23:47 1023 30.21 852 25.16 13.6 56.5 66 7.5 45.5 -83.4 -3.283
23:48 1023 30.21 852 25.16 13.7 56.6 67 7.8 46 -83.5 -3.287
23:49 1023 30.21 852 25.16 13.6 56.4 67 7.5 45.5 -83.5 -3.287
23:50 1023 30.21 852 25.16 13.6 56.4 67 7.5 45.5 -83.5 -3.287
23:51 1023 30.21 852 25.16 13.6 56.4 69 7.9 46.3 -83.5 -3.287
23:52 1023 30.21 852 25.16 13.3 55.9 69 7.8 46 -83.6 -3.291
23:53 1023 30.21 852 25.16 13.1 55.7 67 7.3 45.1 -83.6 -3.291
23:54 1023 30.21 852 25.16 13.3 55.9 67 7.3 45.1 -83.7 -3.295
23:55 1023 30.21 852 25.16 13.4 56.1 66 7.1 44.8 -83.7 -3.295
23:56 1023 30.21 852 25.16 13.6 56.4 65 7.1 44.8 -83.7 -3.295
23:57 1023 30.21 852 25.16 13.9 56.9 64 7.2 45 -83.8 -3.299
23:58 1023 30.21 852 25.16 14 57.3 64 7.4 45.4 -83.8 -3.299
23:59 1023 30.21 852 25.16 13.8 56.8 68 8 46.3 -83.9 -3.303
24:00 1023 30.21 852 25.16 13.2 55.8 70 7.9 46.2 -83.9 -3.303